
<gpx xmlns="http://www.topografix.com/GPX/1/1" xmlns:gpxx="http://www.garmin.com/xmlschemas/GpxExtensions/v3" xmlns:xsi="http://www.w3.org/2001/XMLSchema-instance" version="1.1" creator="Adze - https://getadze.com/" xsi:schemaLocation="http://www.topografix.com/GPX/1/1 http://www.topografix.com/GPX/1/1/gpx.xsd http://www.garmin.com/xmlschemas/GpxExtensions/v3 http://www8.garmin.com/xmlschemas/GpxExtensionsv3.xsd">
    <metadata>
        <name>Untitled Document</name>
        <link href="http://www.garmin.com"></link>
        <time>2018-03-05T07:34:23.331Z</time>
    </metadata>
    <trk>
        <name>December 2005 - Saturday</name>
        <extensions>
            <gpxx:TrackExtension>
                <gpxx:DisplayColor>DarkGray</gpxx:DisplayColor>
            </gpxx:TrackExtension>
        </extensions>
        <trkseg>
            <trkpt lon="100.958583" lat="12.765169">
                <ele>62.142334</ele>
                <time>2005-12-17T06:19:38Z</time>
            </trkpt>
            <trkpt lon="100.958540" lat="12.765341">
                <ele>62.142334</ele>
                <time>2005-12-17T06:19:54Z</time>
            </trkpt>
            <trkpt lon="100.958519" lat="12.765341">
                <ele>62.622925</ele>
                <time>2005-12-17T06:20:14Z</time>
            </trkpt>
            <trkpt lon="100.958519" lat="12.765341">
                <ele>63.584351</ele>
                <time>2005-12-17T06:21:24Z</time>
            </trkpt>
            <trkpt lon="100.958519" lat="12.765341">
                <ele>66.468262</ele>
                <time>2005-12-17T06:23:21Z</time>
            </trkpt>
            <trkpt lon="100.958476" lat="12.765341">
                <ele>65.987671</ele>
                <time>2005-12-17T06:28:22Z</time>
            </trkpt>
            <trkpt lon="100.958433" lat="12.765362">
                <ele>66.948975</ele>
                <time>2005-12-17T06:28:41Z</time>
            </trkpt>
            <trkpt lon="100.958390" lat="12.765362">
                <ele>66.468262</ele>
                <time>2005-12-17T06:29:01Z</time>
            </trkpt>
            <trkpt lon="100.958390" lat="12.765319">
                <ele>64.065063</ele>
                <time>2005-12-17T06:29:34Z</time>
            </trkpt>
            <trkpt lon="100.958433" lat="12.765019">
                <ele>61.181030</ele>
                <time>2005-12-17T06:29:51Z</time>
            </trkpt>
            <trkpt lon="100.958498" lat="12.764697">
                <ele>59.258423</ele>
                <time>2005-12-17T06:30:08Z</time>
            </trkpt>
            <trkpt lon="100.958498" lat="12.764676">
                <ele>61.181030</ele>
                <time>2005-12-17T06:30:23Z</time>
            </trkpt>
            <trkpt lon="100.958476" lat="12.764654">
                <ele>62.142334</ele>
                <time>2005-12-17T06:31:23Z</time>
            </trkpt>
            <trkpt lon="100.958476" lat="12.764654">
                <ele>63.103638</ele>
                <time>2005-12-17T06:31:55Z</time>
            </trkpt>
            <trkpt lon="100.958498" lat="12.764654">
                <ele>66.468262</ele>
                <time>2005-12-17T06:36:56Z</time>
            </trkpt>
            <trkpt lon="100.958498" lat="12.764697">
                <ele>65.987671</ele>
                <time>2005-12-17T06:42:47Z</time>
            </trkpt>
            <trkpt lon="100.958476" lat="12.764740">
                <ele>65.507080</ele>
                <time>2005-12-17T06:42:52Z</time>
            </trkpt>
            <trkpt lon="100.958390" lat="12.764997">
                <ele>65.987671</ele>
                <time>2005-12-17T06:43:08Z</time>
            </trkpt>
            <trkpt lon="100.958283" lat="12.765126">
                <ele>65.987671</ele>
                <time>2005-12-17T06:43:14Z</time>
            </trkpt>
            <trkpt lon="100.958240" lat="12.765255">
                <ele>65.987671</ele>
                <time>2005-12-17T06:43:17Z</time>
            </trkpt>
            <trkpt lon="100.958111" lat="12.765641">
                <ele>65.987671</ele>
                <time>2005-12-17T06:43:25Z</time>
            </trkpt>
            <trkpt lon="100.958133" lat="12.766113">
                <ele>66.948975</ele>
                <time>2005-12-17T06:43:36Z</time>
            </trkpt>
            <trkpt lon="100.958154" lat="12.766607">
                <ele>67.429688</ele>
                <time>2005-12-17T06:43:48Z</time>
            </trkpt>
            <trkpt lon="100.958154" lat="12.766650">
                <ele>67.429688</ele>
                <time>2005-12-17T06:43:56Z</time>
            </trkpt>
            <trkpt lon="100.958133" lat="12.766671">
                <ele>68.871582</ele>
                <time>2005-12-17T06:44:57Z</time>
            </trkpt>
            <trkpt lon="100.958025" lat="12.766950">
                <ele>68.390869</ele>
                <time>2005-12-17T06:45:06Z</time>
            </trkpt>
            <trkpt lon="100.958004" lat="12.766972">
                <ele>68.390869</ele>
                <time>2005-12-17T06:45:07Z</time>
            </trkpt>
            <trkpt lon="100.957232" lat="12.767508">
                <ele>69.832886</ele>
                <time>2005-12-17T06:45:26Z</time>
            </trkpt>
            <trkpt lon="100.956717" lat="12.767894">
                <ele>69.352295</ele>
                <time>2005-12-17T06:45:40Z</time>
            </trkpt>
            <trkpt lon="100.956459" lat="12.768044">
                <ele>69.832886</ele>
                <time>2005-12-17T06:45:46Z</time>
            </trkpt>
            <trkpt lon="100.955729" lat="12.768281">
                <ele>70.313477</ele>
                <time>2005-12-17T06:46:04Z</time>
            </trkpt>
            <trkpt lon="100.954957" lat="12.768517">
                <ele>72.236206</ele>
                <time>2005-12-17T06:46:23Z</time>
            </trkpt>
            <trkpt lon="100.954120" lat="12.769053">
                <ele>73.197632</ele>
                <time>2005-12-17T06:46:44Z</time>
            </trkpt>
            <trkpt lon="100.953219" lat="12.769654">
                <ele>73.678223</ele>
                <time>2005-12-17T06:47:00Z</time>
            </trkpt>
            <trkpt lon="100.952039" lat="12.770426">
                <ele>70.313477</ele>
                <time>2005-12-17T06:47:20Z</time>
            </trkpt>
            <trkpt lon="100.951953" lat="12.770319">
                <ele>70.794189</ele>
                <time>2005-12-17T06:47:26Z</time>
            </trkpt>
            <trkpt lon="100.952296" lat="12.769482">
                <ele>71.274902</ele>
                <time>2005-12-17T06:47:42Z</time>
            </trkpt>
            <trkpt lon="100.952682" lat="12.768624">
                <ele>71.755493</ele>
                <time>2005-12-17T06:48:00Z</time>
            </trkpt>
            <trkpt lon="100.952661" lat="12.768452">
                <ele>72.236206</ele>
                <time>2005-12-17T06:48:04Z</time>
            </trkpt>
            <trkpt lon="100.952382" lat="12.767680">
                <ele>76.562134</ele>
                <time>2005-12-17T06:48:24Z</time>
            </trkpt>
            <trkpt lon="100.952125" lat="12.767208">
                <ele>82.810791</ele>
                <time>2005-12-17T06:48:42Z</time>
            </trkpt>
            <trkpt lon="100.951695" lat="12.767122">
                <ele>83.291382</ele>
                <time>2005-12-17T06:48:54Z</time>
            </trkpt>
            <trkpt lon="100.951524" lat="12.767100">
                <ele>82.810791</ele>
                <time>2005-12-17T06:48:57Z</time>
            </trkpt>
            <trkpt lon="100.951288" lat="12.767036">
                <ele>82.810791</ele>
                <time>2005-12-17T06:49:01Z</time>
            </trkpt>
            <trkpt lon="100.950472" lat="12.766414">
                <ele>81.849365</ele>
                <time>2005-12-17T06:49:16Z</time>
            </trkpt>
            <trkpt lon="100.950429" lat="12.766156">
                <ele>83.291382</ele>
                <time>2005-12-17T06:49:21Z</time>
            </trkpt>
            <trkpt lon="100.950580" lat="12.765577">
                <ele>83.771973</ele>
                <time>2005-12-17T06:49:38Z</time>
            </trkpt>
            <trkpt lon="100.950429" lat="12.765105">
                <ele>86.175293</ele>
                <time>2005-12-17T06:49:49Z</time>
            </trkpt>
            <trkpt lon="100.949936" lat="12.764418">
                <ele>88.098022</ele>
                <time>2005-12-17T06:50:03Z</time>
            </trkpt>
            <trkpt lon="100.949914" lat="12.764375">
                <ele>88.098022</ele>
                <time>2005-12-17T06:50:04Z</time>
            </trkpt>
            <trkpt lon="100.949957" lat="12.763903">
                <ele>89.059326</ele>
                <time>2005-12-17T06:50:19Z</time>
            </trkpt>
            <trkpt lon="100.950043" lat="12.763474">
                <ele>88.578735</ele>
                <time>2005-12-17T06:50:31Z</time>
            </trkpt>
            <trkpt lon="100.950236" lat="12.763259">
                <ele>87.136597</ele>
                <time>2005-12-17T06:50:34Z</time>
            </trkpt>
            <trkpt lon="100.950708" lat="12.763195">
                <ele>82.330078</ele>
                <time>2005-12-17T06:50:39Z</time>
            </trkpt>
            <trkpt lon="100.952382" lat="12.763710">
                <ele>80.407471</ele>
                <time>2005-12-17T06:50:56Z</time>
            </trkpt>
            <trkpt lon="100.953455" lat="12.764225">
                <ele>80.888184</ele>
                <time>2005-12-17T06:51:10Z</time>
            </trkpt>
            <trkpt lon="100.953562" lat="12.764225">
                <ele>81.368774</ele>
                <time>2005-12-17T06:51:12Z</time>
            </trkpt>
            <trkpt lon="100.953777" lat="12.764053">
                <ele>82.330078</ele>
                <time>2005-12-17T06:51:18Z</time>
            </trkpt>
            <trkpt lon="100.953927" lat="12.763796">
                <ele>82.330078</ele>
                <time>2005-12-17T06:51:24Z</time>
            </trkpt>
            <trkpt lon="100.953970" lat="12.763624">
                <ele>82.330078</ele>
                <time>2005-12-17T06:51:27Z</time>
            </trkpt>
            <trkpt lon="100.954292" lat="12.762015">
                <ele>83.291382</ele>
                <time>2005-12-17T06:51:50Z</time>
            </trkpt>
            <trkpt lon="100.954335" lat="12.761629">
                <ele>83.771973</ele>
                <time>2005-12-17T06:52:03Z</time>
            </trkpt>
            <trkpt lon="100.954335" lat="12.761607">
                <ele>83.291382</ele>
                <time>2005-12-17T06:52:04Z</time>
            </trkpt>
            <trkpt lon="100.954313" lat="12.761693">
                <ele>83.291382</ele>
                <time>2005-12-17T06:52:17Z</time>
            </trkpt>
            <trkpt lon="100.954335" lat="12.761736">
                <ele>84.733398</ele>
                <time>2005-12-17T06:53:49Z</time>
            </trkpt>
            <trkpt lon="100.954571" lat="12.761629">
                <ele>86.656006</ele>
                <time>2005-12-17T06:54:06Z</time>
            </trkpt>
            <trkpt lon="100.954978" lat="12.761478">
                <ele>88.578735</ele>
                <time>2005-12-17T06:54:20Z</time>
            </trkpt>
            <trkpt lon="100.955987" lat="12.760963">
                <ele>85.213989</ele>
                <time>2005-12-17T06:54:31Z</time>
            </trkpt>
            <trkpt lon="100.956995" lat="12.760921">
                <ele>74.639526</ele>
                <time>2005-12-17T06:54:40Z</time>
            </trkpt>
            <trkpt lon="100.957038" lat="12.760921">
                <ele>73.678223</ele>
                <time>2005-12-17T06:54:41Z</time>
            </trkpt>
            <trkpt lon="100.957146" lat="12.760620">
                <ele>70.313477</ele>
                <time>2005-12-17T06:54:48Z</time>
            </trkpt>
            <trkpt lon="100.957296" lat="12.759612">
                <ele>66.468262</ele>
                <time>2005-12-17T06:55:03Z</time>
            </trkpt>
            <trkpt lon="100.957704" lat="12.759547">
                <ele>64.545654</ele>
                <time>2005-12-17T06:55:09Z</time>
            </trkpt>
            <trkpt lon="100.958841" lat="12.760363">
                <ele>59.258423</ele>
                <time>2005-12-17T06:55:28Z</time>
            </trkpt>
            <trkpt lon="100.958905" lat="12.760406">
                <ele>59.258423</ele>
                <time>2005-12-17T06:55:29Z</time>
            </trkpt>
            <trkpt lon="100.959313" lat="12.760427">
                <ele>57.816528</ele>
                <time>2005-12-17T06:55:35Z</time>
            </trkpt>
            <trkpt lon="100.959871" lat="12.760363">
                <ele>56.855103</ele>
                <time>2005-12-17T06:55:43Z</time>
            </trkpt>
            <trkpt lon="100.960257" lat="12.759955">
                <ele>55.893799</ele>
                <time>2005-12-17T06:55:52Z</time>
            </trkpt>
            <trkpt lon="100.960257" lat="12.759826">
                <ele>55.893799</ele>
                <time>2005-12-17T06:55:54Z</time>
            </trkpt>
            <trkpt lon="100.960150" lat="12.758281">
                <ele>53.971191</ele>
                <time>2005-12-17T06:56:15Z</time>
            </trkpt>
            <trkpt lon="100.960128" lat="12.758152">
                <ele>53.971191</ele>
                <time>2005-12-17T06:56:17Z</time>
            </trkpt>
            <trkpt lon="100.960000" lat="12.757916">
                <ele>54.451782</ele>
                <time>2005-12-17T06:56:22Z</time>
            </trkpt>
            <trkpt lon="100.959806" lat="12.757680">
                <ele>54.451782</ele>
                <time>2005-12-17T06:56:29Z</time>
            </trkpt>
            <trkpt lon="100.959871" lat="12.757616">
                <ele>53.971191</ele>
                <time>2005-12-17T06:56:37Z</time>
            </trkpt>
            <trkpt lon="100.960000" lat="12.757487">
                <ele>53.490479</ele>
                <time>2005-12-17T06:56:50Z</time>
            </trkpt>
            <trkpt lon="100.960343" lat="12.757423">
                <ele>53.971191</ele>
                <time>2005-12-17T06:57:00Z</time>
            </trkpt>
            <trkpt lon="100.960429" lat="12.757466">
                <ele>53.971191</ele>
                <time>2005-12-17T06:57:02Z</time>
            </trkpt>
            <trkpt lon="100.960579" lat="12.757659">
                <ele>53.971191</ele>
                <time>2005-12-17T06:57:08Z</time>
            </trkpt>
            <trkpt lon="100.960686" lat="12.758152">
                <ele>54.932373</ele>
                <time>2005-12-17T06:57:22Z</time>
            </trkpt>
            <trkpt lon="100.960686" lat="12.758131">
                <ele>56.374512</ele>
                <time>2005-12-17T06:57:43Z</time>
            </trkpt>
            <trkpt lon="100.961030" lat="12.758324">
                <ele>55.413086</ele>
                <time>2005-12-17T06:57:55Z</time>
            </trkpt>
            <trkpt lon="100.961115" lat="12.758496">
                <ele>55.413086</ele>
                <time>2005-12-17T06:58:00Z</time>
            </trkpt>
            <trkpt lon="100.961051" lat="12.758925">
                <ele>53.971191</ele>
                <time>2005-12-17T06:58:09Z</time>
            </trkpt>
            <trkpt lon="100.960901" lat="12.759376">
                <ele>53.490479</ele>
                <time>2005-12-17T06:58:18Z</time>
            </trkpt>
            <trkpt lon="100.960965" lat="12.759633">
                <ele>54.451782</ele>
                <time>2005-12-17T06:58:24Z</time>
            </trkpt>
            <trkpt lon="100.961115" lat="12.759805">
                <ele>54.932373</ele>
                <time>2005-12-17T06:58:29Z</time>
            </trkpt>
            <trkpt lon="100.961459" lat="12.760255">
                <ele>56.855103</ele>
                <time>2005-12-17T06:58:43Z</time>
            </trkpt>
            <trkpt lon="100.961931" lat="12.760835">
                <ele>58.297119</ele>
                <time>2005-12-17T06:59:02Z</time>
            </trkpt>
            <trkpt lon="100.962081" lat="12.760985">
                <ele>58.777710</ele>
                <time>2005-12-17T06:59:07Z</time>
            </trkpt>
            <trkpt lon="100.962446" lat="12.761371">
                <ele>57.816528</ele>
                <time>2005-12-17T06:59:23Z</time>
            </trkpt>
            <trkpt lon="100.962553" lat="12.761328">
                <ele>58.297119</ele>
                <time>2005-12-17T06:59:28Z</time>
            </trkpt>
            <trkpt lon="100.962896" lat="12.761006">
                <ele>59.739136</ele>
                <time>2005-12-17T06:59:44Z</time>
            </trkpt>
            <trkpt lon="100.963132" lat="12.760835">
                <ele>61.181030</ele>
                <time>2005-12-17T06:59:54Z</time>
            </trkpt>
            <trkpt lon="100.963712" lat="12.760706">
                <ele>64.065063</ele>
                <time>2005-12-17T07:00:13Z</time>
            </trkpt>
            <trkpt lon="100.964184" lat="12.760534">
                <ele>66.468262</ele>
                <time>2005-12-17T07:00:30Z</time>
            </trkpt>
            <trkpt lon="100.964334" lat="12.760384">
                <ele>67.910278</ele>
                <time>2005-12-17T07:00:39Z</time>
            </trkpt>
            <trkpt lon="100.964205" lat="12.760105">
                <ele>67.429688</ele>
                <time>2005-12-17T07:00:50Z</time>
            </trkpt>
            <trkpt lon="100.964227" lat="12.760084">
                <ele>66.948975</ele>
                <time>2005-12-17T07:00:52Z</time>
            </trkpt>
            <trkpt lon="100.964248" lat="12.760084">
                <ele>66.468262</ele>
                <time>2005-12-17T07:00:54Z</time>
            </trkpt>
            <trkpt lon="100.964270" lat="12.760062">
                <ele>67.429688</ele>
                <time>2005-12-17T07:01:02Z</time>
            </trkpt>
            <trkpt lon="100.964334" lat="12.760105">
                <ele>66.948975</ele>
                <time>2005-12-17T07:01:06Z</time>
            </trkpt>
            <trkpt lon="100.964377" lat="12.760191">
                <ele>67.429688</ele>
                <time>2005-12-17T07:01:11Z</time>
            </trkpt>
            <trkpt lon="100.964549" lat="12.760298">
                <ele>67.429688</ele>
                <time>2005-12-17T07:01:20Z</time>
            </trkpt>
            <trkpt lon="100.964742" lat="12.760191">
                <ele>68.390869</ele>
                <time>2005-12-17T07:01:27Z</time>
            </trkpt>
            <trkpt lon="100.965192" lat="12.759891">
                <ele>69.832886</ele>
                <time>2005-12-17T07:01:42Z</time>
            </trkpt>
            <trkpt lon="100.965836" lat="12.759697">
                <ele>71.755493</ele>
                <time>2005-12-17T07:01:59Z</time>
            </trkpt>
            <trkpt lon="100.966544" lat="12.759569">
                <ele>71.755493</ele>
                <time>2005-12-17T07:02:16Z</time>
            </trkpt>
            <trkpt lon="100.967231" lat="12.759504">
                <ele>71.755493</ele>
                <time>2005-12-17T07:02:34Z</time>
            </trkpt>
            <trkpt lon="100.967638" lat="12.759440">
                <ele>72.716919</ele>
                <time>2005-12-17T07:02:49Z</time>
            </trkpt>
            <trkpt lon="100.967703" lat="12.759440">
                <ele>72.236206</ele>
                <time>2005-12-17T07:03:00Z</time>
            </trkpt>
            <trkpt lon="100.967746" lat="12.759418">
                <ele>72.716919</ele>
                <time>2005-12-17T07:03:39Z</time>
            </trkpt>
            <trkpt lon="100.967810" lat="12.759504">
                <ele>73.197632</ele>
                <time>2005-12-17T07:03:44Z</time>
            </trkpt>
            <trkpt lon="100.967875" lat="12.759590">
                <ele>74.158813</ele>
                <time>2005-12-17T07:03:48Z</time>
            </trkpt>
            <trkpt lon="100.968068" lat="12.759569">
                <ele>74.158813</ele>
                <time>2005-12-17T07:03:54Z</time>
            </trkpt>
            <trkpt lon="100.968626" lat="12.759461">
                <ele>72.716919</ele>
                <time>2005-12-17T07:04:09Z</time>
            </trkpt>
            <trkpt lon="100.968711" lat="12.759333">
                <ele>71.755493</ele>
                <time>2005-12-17T07:04:13Z</time>
            </trkpt>
            <trkpt lon="100.968776" lat="12.758625">
                <ele>67.429688</ele>
                <time>2005-12-17T07:04:29Z</time>
            </trkpt>
            <trkpt lon="100.968776" lat="12.758346">
                <ele>64.065063</ele>
                <time>2005-12-17T07:04:41Z</time>
            </trkpt>
            <trkpt lon="100.968883" lat="12.758088">
                <ele>64.065063</ele>
                <time>2005-12-17T07:04:49Z</time>
            </trkpt>
            <trkpt lon="100.968840" lat="12.757938">
                <ele>64.545654</ele>
                <time>2005-12-17T07:04:54Z</time>
            </trkpt>
            <trkpt lon="100.968561" lat="12.757595">
                <ele>64.065063</ele>
                <time>2005-12-17T07:05:08Z</time>
            </trkpt>
            <trkpt lon="100.968046" lat="12.757294">
                <ele>61.661743</ele>
                <time>2005-12-17T07:05:24Z</time>
            </trkpt>
            <trkpt lon="100.967488" lat="12.756951">
                <ele>60.219727</ele>
                <time>2005-12-17T07:05:40Z</time>
            </trkpt>
            <trkpt lon="100.967081" lat="12.756650">
                <ele>59.739136</ele>
                <time>2005-12-17T07:05:56Z</time>
            </trkpt>
            <trkpt lon="100.966952" lat="12.756565">
                <ele>58.777710</ele>
                <time>2005-12-17T07:06:02Z</time>
            </trkpt>
            <trkpt lon="100.966866" lat="12.756543">
                <ele>58.777710</ele>
                <time>2005-12-17T07:06:06Z</time>
            </trkpt>
            <trkpt lon="100.966823" lat="12.756457">
                <ele>59.739136</ele>
                <time>2005-12-17T07:06:11Z</time>
            </trkpt>
            <trkpt lon="100.966780" lat="12.756307">
                <ele>62.622925</ele>
                <time>2005-12-17T07:06:22Z</time>
            </trkpt>
            <trkpt lon="100.967081" lat="12.756221">
                <ele>62.622925</ele>
                <time>2005-12-17T07:06:36Z</time>
            </trkpt>
            <trkpt lon="100.967488" lat="12.756093">
                <ele>63.103638</ele>
                <time>2005-12-17T07:06:52Z</time>
            </trkpt>
            <trkpt lon="100.967917" lat="12.755857">
                <ele>66.468262</ele>
                <time>2005-12-17T07:07:11Z</time>
            </trkpt>
            <trkpt lon="100.968390" lat="12.755835">
                <ele>66.948975</ele>
                <time>2005-12-17T07:07:27Z</time>
            </trkpt>
            <trkpt lon="100.968883" lat="12.755771">
                <ele>66.948975</ele>
                <time>2005-12-17T07:07:42Z</time>
            </trkpt>
            <trkpt lon="100.969291" lat="12.755599">
                <ele>67.429688</ele>
                <time>2005-12-17T07:07:55Z</time>
            </trkpt>
            <trkpt lon="100.969763" lat="12.755492">
                <ele>68.871582</ele>
                <time>2005-12-17T07:08:09Z</time>
            </trkpt>
            <trkpt lon="100.969934" lat="12.755256">
                <ele>70.313477</ele>
                <time>2005-12-17T07:08:20Z</time>
            </trkpt>
            <trkpt lon="100.970085" lat="12.754805">
                <ele>71.274902</ele>
                <time>2005-12-17T07:08:38Z</time>
            </trkpt>
            <trkpt lon="100.970235" lat="12.754290">
                <ele>75.120239</ele>
                <time>2005-12-17T07:08:59Z</time>
            </trkpt>
            <trkpt lon="100.970299" lat="12.754076">
                <ele>76.562134</ele>
                <time>2005-12-17T07:09:12Z</time>
            </trkpt>
            <trkpt lon="100.970449" lat="12.753668">
                <ele>79.446045</ele>
                <time>2005-12-17T07:09:29Z</time>
            </trkpt>
            <trkpt lon="100.970814" lat="12.753410">
                <ele>80.407471</ele>
                <time>2005-12-17T07:09:46Z</time>
            </trkpt>
            <trkpt lon="100.971265" lat="12.753325">
                <ele>82.810791</ele>
                <time>2005-12-17T07:10:05Z</time>
            </trkpt>
            <trkpt lon="100.971544" lat="12.753303">
                <ele>85.213989</ele>
                <time>2005-12-17T07:10:23Z</time>
            </trkpt>
            <trkpt lon="100.971544" lat="12.753282">
                <ele>84.733398</ele>
                <time>2005-12-17T07:11:14Z</time>
            </trkpt>
            <trkpt lon="100.971522" lat="12.753282">
                <ele>84.252686</ele>
                <time>2005-12-17T07:11:17Z</time>
            </trkpt>
            <trkpt lon="100.971394" lat="12.753325">
                <ele>85.213989</ele>
                <time>2005-12-17T07:11:22Z</time>
            </trkpt>
            <trkpt lon="100.970707" lat="12.753432">
                <ele>84.733398</ele>
                <time>2005-12-17T07:11:41Z</time>
            </trkpt>
            <trkpt lon="100.970407" lat="12.753561">
                <ele>84.252686</ele>
                <time>2005-12-17T07:11:49Z</time>
            </trkpt>
            <trkpt lon="100.970321" lat="12.753797">
                <ele>82.810791</ele>
                <time>2005-12-17T07:11:55Z</time>
            </trkpt>
            <trkpt lon="100.970192" lat="12.754226">
                <ele>78.484741</ele>
                <time>2005-12-17T07:12:07Z</time>
            </trkpt>
            <trkpt lon="100.970128" lat="12.754376">
                <ele>77.042847</ele>
                <time>2005-12-17T07:12:11Z</time>
            </trkpt>
            <trkpt lon="100.969956" lat="12.755084">
                <ele>72.716919</ele>
                <time>2005-12-17T07:12:27Z</time>
            </trkpt>
            <trkpt lon="100.969827" lat="12.755427">
                <ele>69.352295</ele>
                <time>2005-12-17T07:12:40Z</time>
            </trkpt>
            <trkpt lon="100.969827" lat="12.755470">
                <ele>69.352295</ele>
                <time>2005-12-17T07:12:56Z</time>
            </trkpt>
            <trkpt lon="100.969827" lat="12.755449">
                <ele>69.832886</ele>
                <time>2005-12-17T07:17:16Z</time>
            </trkpt>
            <trkpt lon="100.969527" lat="12.755556">
                <ele>68.390869</ele>
                <time>2005-12-17T07:17:27Z</time>
            </trkpt>
            <trkpt lon="100.969055" lat="12.755685">
                <ele>66.468262</ele>
                <time>2005-12-17T07:17:39Z</time>
            </trkpt>
            <trkpt lon="100.968540" lat="12.755814">
                <ele>65.987671</ele>
                <time>2005-12-17T07:17:54Z</time>
            </trkpt>
            <trkpt lon="100.968390" lat="12.755814">
                <ele>65.507080</ele>
                <time>2005-12-17T07:17:58Z</time>
            </trkpt>
            <trkpt lon="100.967875" lat="12.755835">
                <ele>63.584351</ele>
                <time>2005-12-17T07:18:13Z</time>
            </trkpt>
            <trkpt lon="100.967467" lat="12.756093">
                <ele>61.181030</ele>
                <time>2005-12-17T07:18:25Z</time>
            </trkpt>
            <trkpt lon="100.967038" lat="12.756286">
                <ele>60.700317</ele>
                <time>2005-12-17T07:18:39Z</time>
            </trkpt>
            <trkpt lon="100.966694" lat="12.756307">
                <ele>63.103638</ele>
                <time>2005-12-17T07:18:52Z</time>
            </trkpt>
            <trkpt lon="100.966544" lat="12.756028">
                <ele>64.065063</ele>
                <time>2005-12-17T07:19:08Z</time>
            </trkpt>
            <trkpt lon="100.966437" lat="12.755599">
                <ele>62.622925</ele>
                <time>2005-12-17T07:19:21Z</time>
            </trkpt>
            <trkpt lon="100.966415" lat="12.755170">
                <ele>62.142334</ele>
                <time>2005-12-17T07:19:34Z</time>
            </trkpt>
            <trkpt lon="100.966566" lat="12.754569">
                <ele>65.026367</ele>
                <time>2005-12-17T07:19:52Z</time>
            </trkpt>
            <trkpt lon="100.966780" lat="12.754011">
                <ele>68.390869</ele>
                <time>2005-12-17T07:20:10Z</time>
            </trkpt>
            <trkpt lon="100.966866" lat="12.753754">
                <ele>71.755493</ele>
                <time>2005-12-17T07:20:24Z</time>
            </trkpt>
            <trkpt lon="100.966909" lat="12.753410">
                <ele>72.716919</ele>
                <time>2005-12-17T07:20:41Z</time>
            </trkpt>
            <trkpt lon="100.967038" lat="12.753239">
                <ele>74.158813</ele>
                <time>2005-12-17T07:20:54Z</time>
            </trkpt>
            <trkpt lon="100.967424" lat="12.752960">
                <ele>75.120239</ele>
                <time>2005-12-17T07:21:09Z</time>
            </trkpt>
            <trkpt lon="100.967810" lat="12.752810">
                <ele>75.120239</ele>
                <time>2005-12-17T07:21:22Z</time>
            </trkpt>
            <trkpt lon="100.967982" lat="12.752595">
                <ele>76.081421</ele>
                <time>2005-12-17T07:21:34Z</time>
            </trkpt>
            <trkpt lon="100.968196" lat="12.752316">
                <ele>76.562134</ele>
                <time>2005-12-17T07:21:49Z</time>
            </trkpt>
            <trkpt lon="100.968218" lat="12.752273">
                <ele>80.407471</ele>
                <time>2005-12-17T07:22:01Z</time>
            </trkpt>
            <trkpt lon="100.968239" lat="12.752230">
                <ele>80.407471</ele>
                <time>2005-12-17T07:22:09Z</time>
            </trkpt>
            <trkpt lon="100.968347" lat="12.752209">
                <ele>82.810791</ele>
                <time>2005-12-17T07:22:27Z</time>
            </trkpt>
            <trkpt lon="100.968368" lat="12.752209">
                <ele>82.810791</ele>
                <time>2005-12-17T07:22:36Z</time>
            </trkpt>
            <trkpt lon="100.968497" lat="12.752166">
                <ele>81.849365</ele>
                <time>2005-12-17T07:22:43Z</time>
            </trkpt>
            <trkpt lon="100.968561" lat="12.752209">
                <ele>81.849365</ele>
                <time>2005-12-17T07:22:47Z</time>
            </trkpt>
            <trkpt lon="100.968797" lat="12.752531">
                <ele>82.330078</ele>
                <time>2005-12-17T07:23:05Z</time>
            </trkpt>
            <trkpt lon="100.968904" lat="12.752638">
                <ele>82.810791</ele>
                <time>2005-12-17T07:23:17Z</time>
            </trkpt>
            <trkpt lon="100.969033" lat="12.752531">
                <ele>83.291382</ele>
                <time>2005-12-17T07:23:43Z</time>
            </trkpt>
            <trkpt lon="100.969419" lat="12.752316">
                <ele>83.771973</ele>
                <time>2005-12-17T07:24:07Z</time>
            </trkpt>
            <trkpt lon="100.969806" lat="12.751908">
                <ele>82.810791</ele>
                <time>2005-12-17T07:24:25Z</time>
            </trkpt>
            <trkpt lon="100.969827" lat="12.751865">
                <ele>82.810791</ele>
                <time>2005-12-17T07:24:26Z</time>
            </trkpt>
            <trkpt lon="100.969892" lat="12.751436">
                <ele>81.849365</ele>
                <time>2005-12-17T07:24:50Z</time>
            </trkpt>
            <trkpt lon="100.969956" lat="12.751114">
                <ele>84.252686</ele>
                <time>2005-12-17T07:25:11Z</time>
            </trkpt>
            <trkpt lon="100.970042" lat="12.750621">
                <ele>84.252686</ele>
                <time>2005-12-17T07:25:33Z</time>
            </trkpt>
            <trkpt lon="100.969913" lat="12.750299">
                <ele>85.213989</ele>
                <time>2005-12-17T07:25:46Z</time>
            </trkpt>
            <trkpt lon="100.969870" lat="12.750170">
                <ele>83.291382</ele>
                <time>2005-12-17T07:25:56Z</time>
            </trkpt>
            <trkpt lon="100.969892" lat="12.750084">
                <ele>84.733398</ele>
                <time>2005-12-17T07:26:10Z</time>
            </trkpt>
            <trkpt lon="100.969913" lat="12.750084">
                <ele>85.213989</ele>
                <time>2005-12-17T07:26:12Z</time>
            </trkpt>
            <trkpt lon="100.970042" lat="12.749999">
                <ele>89.059326</ele>
                <time>2005-12-17T07:26:31Z</time>
            </trkpt>
            <trkpt lon="100.970042" lat="12.749999">
                <ele>89.539917</ele>
                <time>2005-12-17T07:26:53Z</time>
            </trkpt>
            <trkpt lon="100.970042" lat="12.749999">
                <ele>92.423950</ele>
                <time>2005-12-17T07:27:33Z</time>
            </trkpt>
            <trkpt lon="100.969548" lat="12.750063">
                <ele>85.694580</ele>
                <time>2005-12-17T07:27:47Z</time>
            </trkpt>
            <trkpt lon="100.968840" lat="12.750084">
                <ele>79.926636</ele>
                <time>2005-12-17T07:28:03Z</time>
            </trkpt>
            <trkpt lon="100.968325" lat="12.749999">
                <ele>75.120239</ele>
                <time>2005-12-17T07:28:18Z</time>
            </trkpt>
            <trkpt lon="100.968239" lat="12.749999">
                <ele>74.639526</ele>
                <time>2005-12-17T07:28:20Z</time>
            </trkpt>
            <trkpt lon="100.968089" lat="12.750063">
                <ele>74.639526</ele>
                <time>2005-12-17T07:28:24Z</time>
            </trkpt>
            <trkpt lon="100.967832" lat="12.750299">
                <ele>74.158813</ele>
                <time>2005-12-17T07:28:38Z</time>
            </trkpt>
            <trkpt lon="100.967746" lat="12.750492">
                <ele>75.600830</ele>
                <time>2005-12-17T07:28:55Z</time>
            </trkpt>
            <trkpt lon="100.967724" lat="12.750514">
                <ele>77.523438</ele>
                <time>2005-12-17T07:29:12Z</time>
            </trkpt>
            <trkpt lon="100.967789" lat="12.750578">
                <ele>78.484741</ele>
                <time>2005-12-17T07:29:29Z</time>
            </trkpt>
            <trkpt lon="100.967789" lat="12.750578">
                <ele>78.965454</ele>
                <time>2005-12-17T07:29:32Z</time>
            </trkpt>
            <trkpt lon="100.967853" lat="12.750750">
                <ele>83.291382</ele>
                <time>2005-12-17T07:29:50Z</time>
            </trkpt>
            <trkpt lon="100.967896" lat="12.750964">
                <ele>84.252686</ele>
                <time>2005-12-17T07:30:10Z</time>
            </trkpt>
            <trkpt lon="100.968025" lat="12.751157">
                <ele>88.098022</ele>
                <time>2005-12-17T07:30:30Z</time>
            </trkpt>
            <trkpt lon="100.968153" lat="12.751329">
                <ele>92.423950</ele>
                <time>2005-12-17T07:30:54Z</time>
            </trkpt>
            <trkpt lon="100.968132" lat="12.751501">
                <ele>93.385132</ele>
                <time>2005-12-17T07:31:15Z</time>
            </trkpt>
            <trkpt lon="100.968132" lat="12.751522">
                <ele>93.385132</ele>
                <time>2005-12-17T07:31:16Z</time>
            </trkpt>
            <trkpt lon="100.967917" lat="12.751608">
                <ele>97.711182</ele>
                <time>2005-12-17T07:31:38Z</time>
            </trkpt>
            <trkpt lon="100.967767" lat="12.751672">
                <ele>99.153076</ele>
                <time>2005-12-17T07:32:11Z</time>
            </trkpt>
            <trkpt lon="100.967553" lat="12.751694">
                <ele>102.517700</ele>
                <time>2005-12-17T07:32:29Z</time>
            </trkpt>
            <trkpt lon="100.967402" lat="12.751758">
                <ele>106.363037</ele>
                <time>2005-12-17T07:32:47Z</time>
            </trkpt>
            <trkpt lon="100.967317" lat="12.751865">
                <ele>109.727661</ele>
                <time>2005-12-17T07:33:08Z</time>
            </trkpt>
            <trkpt lon="100.967295" lat="12.751908">
                <ele>110.208252</ele>
                <time>2005-12-17T07:33:15Z</time>
            </trkpt>
            <trkpt lon="100.967252" lat="12.751994">
                <ele>114.534180</ele>
                <time>2005-12-17T07:33:32Z</time>
            </trkpt>
            <trkpt lon="100.967188" lat="12.752101">
                <ele>115.495605</ele>
                <time>2005-12-17T07:33:47Z</time>
            </trkpt>
            <trkpt lon="100.967209" lat="12.752123">
                <ele>113.572998</ele>
                <time>2005-12-17T07:34:12Z</time>
            </trkpt>
            <trkpt lon="100.967145" lat="12.752080">
                <ele>121.744141</ele>
                <time>2005-12-17T07:35:39Z</time>
            </trkpt>
            <trkpt lon="100.966909" lat="12.752080">
                <ele>119.340820</ele>
                <time>2005-12-17T07:35:58Z</time>
            </trkpt>
            <trkpt lon="100.966716" lat="12.752166">
                <ele>117.898804</ele>
                <time>2005-12-17T07:36:03Z</time>
            </trkpt>
            <trkpt lon="100.966587" lat="12.752252">
                <ele>117.418213</ele>
                <time>2005-12-17T07:36:07Z</time>
            </trkpt>
            <trkpt lon="100.966330" lat="12.752316">
                <ele>118.379395</ele>
                <time>2005-12-17T07:36:20Z</time>
            </trkpt>
            <trkpt lon="100.965879" lat="12.752209">
                <ele>115.976196</ele>
                <time>2005-12-17T07:36:32Z</time>
            </trkpt>
            <trkpt lon="100.965664" lat="12.752209">
                <ele>117.418213</ele>
                <time>2005-12-17T07:36:46Z</time>
            </trkpt>
            <trkpt lon="100.965514" lat="12.752209">
                <ele>121.744141</ele>
                <time>2005-12-17T07:37:25Z</time>
            </trkpt>
            <trkpt lon="100.965278" lat="12.752059">
                <ele>114.534180</ele>
                <time>2005-12-17T07:37:44Z</time>
            </trkpt>
            <trkpt lon="100.965149" lat="12.751801">
                <ele>107.324341</ele>
                <time>2005-12-17T07:37:59Z</time>
            </trkpt>
            <trkpt lon="100.964999" lat="12.751544">
                <ele>97.230469</ele>
                <time>2005-12-17T07:38:17Z</time>
            </trkpt>
            <trkpt lon="100.964849" lat="12.751307">
                <ele>89.539917</ele>
                <time>2005-12-17T07:38:29Z</time>
            </trkpt>
            <trkpt lon="100.964785" lat="12.750986">
                <ele>82.810791</ele>
                <time>2005-12-17T07:38:42Z</time>
            </trkpt>
            <trkpt lon="100.964699" lat="12.750707">
                <ele>77.042847</ele>
                <time>2005-12-17T07:38:54Z</time>
            </trkpt>
            <trkpt lon="100.964677" lat="12.750449">
                <ele>73.678223</ele>
                <time>2005-12-17T07:39:03Z</time>
            </trkpt>
            <trkpt lon="100.964763" lat="12.750449">
                <ele>73.678223</ele>
                <time>2005-12-17T07:39:17Z</time>
            </trkpt>
            <trkpt lon="100.964763" lat="12.750471">
                <ele>72.716919</ele>
                <time>2005-12-17T07:39:24Z</time>
            </trkpt>
            <trkpt lon="100.965042" lat="12.750664">
                <ele>73.678223</ele>
                <time>2005-12-17T07:39:39Z</time>
            </trkpt>
            <trkpt lon="100.965364" lat="12.750750">
                <ele>76.081421</ele>
                <time>2005-12-17T07:39:53Z</time>
            </trkpt>
            <trkpt lon="100.965664" lat="12.750621">
                <ele>76.562134</ele>
                <time>2005-12-17T07:40:09Z</time>
            </trkpt>
            <trkpt lon="100.965707" lat="12.750599">
                <ele>76.081421</ele>
                <time>2005-12-17T07:40:11Z</time>
            </trkpt>
            <trkpt lon="100.966158" lat="12.750535">
                <ele>77.042847</ele>
                <time>2005-12-17T07:40:25Z</time>
            </trkpt>
            <trkpt lon="100.966480" lat="12.750449">
                <ele>80.407471</ele>
                <time>2005-12-17T07:40:40Z</time>
            </trkpt>
            <trkpt lon="100.966630" lat="12.750471">
                <ele>81.849365</ele>
                <time>2005-12-17T07:40:52Z</time>
            </trkpt>
            <trkpt lon="100.966651" lat="12.750471">
                <ele>84.252686</ele>
                <time>2005-12-17T07:41:11Z</time>
            </trkpt>
            <trkpt lon="100.966673" lat="12.750471">
                <ele>80.407471</ele>
                <time>2005-12-17T07:41:46Z</time>
            </trkpt>
            <trkpt lon="100.966673" lat="12.750471">
                <ele>80.888184</ele>
                <time>2005-12-17T07:42:19Z</time>
            </trkpt>
            <trkpt lon="100.966651" lat="12.750428">
                <ele>79.926636</ele>
                <time>2005-12-17T07:42:22Z</time>
            </trkpt>
            <trkpt lon="100.966651" lat="12.750428">
                <ele>79.926636</ele>
                <time>2005-12-17T07:42:24Z</time>
            </trkpt>
            <trkpt lon="100.966437" lat="12.750449">
                <ele>77.523438</ele>
                <time>2005-12-17T07:42:34Z</time>
            </trkpt>
            <trkpt lon="100.966136" lat="12.750556">
                <ele>74.639526</ele>
                <time>2005-12-17T07:42:41Z</time>
            </trkpt>
            <trkpt lon="100.965686" lat="12.750621">
                <ele>75.600830</ele>
                <time>2005-12-17T07:42:54Z</time>
            </trkpt>
            <trkpt lon="100.965664" lat="12.750642">
                <ele>76.081421</ele>
                <time>2005-12-17T07:42:57Z</time>
            </trkpt>
            <trkpt lon="100.965343" lat="12.750771">
                <ele>76.081421</ele>
                <time>2005-12-17T07:43:11Z</time>
            </trkpt>
            <trkpt lon="100.965300" lat="12.750771">
                <ele>76.081421</ele>
                <time>2005-12-17T07:43:12Z</time>
            </trkpt>
            <trkpt lon="100.964785" lat="12.750492">
                <ele>73.678223</ele>
                <time>2005-12-17T07:43:24Z</time>
            </trkpt>
            <trkpt lon="100.964634" lat="12.750406">
                <ele>71.755493</ele>
                <time>2005-12-17T07:43:36Z</time>
            </trkpt>
            <trkpt lon="100.964592" lat="12.750385">
                <ele>76.081421</ele>
                <time>2005-12-17T07:45:37Z</time>
            </trkpt>
            <trkpt lon="100.964291" lat="12.750363">
                <ele>72.716919</ele>
                <time>2005-12-17T07:45:47Z</time>
            </trkpt>
            <trkpt lon="100.964162" lat="12.750535">
                <ele>72.236206</ele>
                <time>2005-12-17T07:45:53Z</time>
            </trkpt>
            <trkpt lon="100.964034" lat="12.751029">
                <ele>73.197632</ele>
                <time>2005-12-17T07:46:10Z</time>
            </trkpt>
            <trkpt lon="100.963755" lat="12.751565">
                <ele>69.832886</ele>
                <time>2005-12-17T07:46:25Z</time>
            </trkpt>
            <trkpt lon="100.963454" lat="12.751951">
                <ele>67.429688</ele>
                <time>2005-12-17T07:46:33Z</time>
            </trkpt>
            <trkpt lon="100.963368" lat="12.752144">
                <ele>66.948975</ele>
                <time>2005-12-17T07:46:37Z</time>
            </trkpt>
            <trkpt lon="100.963240" lat="12.753024">
                <ele>65.026367</ele>
                <time>2005-12-17T07:46:57Z</time>
            </trkpt>
            <trkpt lon="100.963197" lat="12.753110">
                <ele>65.026367</ele>
                <time>2005-12-17T07:47:00Z</time>
            </trkpt>
            <trkpt lon="100.963025" lat="12.753110">
                <ele>64.065063</ele>
                <time>2005-12-17T07:47:04Z</time>
            </trkpt>
            <trkpt lon="100.962188" lat="12.753217">
                <ele>62.142334</ele>
                <time>2005-12-17T07:47:19Z</time>
            </trkpt>
            <trkpt lon="100.962145" lat="12.753217">
                <ele>61.661743</ele>
                <time>2005-12-17T07:47:20Z</time>
            </trkpt>
            <trkpt lon="100.961716" lat="12.753196">
                <ele>59.739136</ele>
                <time>2005-12-17T07:47:32Z</time>
            </trkpt>
            <trkpt lon="100.961287" lat="12.753239">
                <ele>57.816528</ele>
                <time>2005-12-17T07:47:46Z</time>
            </trkpt>
            <trkpt lon="100.961180" lat="12.753282">
                <ele>56.374512</ele>
                <time>2005-12-17T07:47:49Z</time>
            </trkpt>
            <trkpt lon="100.960987" lat="12.753410">
                <ele>53.971191</ele>
                <time>2005-12-17T07:47:53Z</time>
            </trkpt>
            <trkpt lon="100.960858" lat="12.753518">
                <ele>53.971191</ele>
                <time>2005-12-17T07:47:56Z</time>
            </trkpt>
            <trkpt lon="100.960279" lat="12.753732">
                <ele>52.048584</ele>
                <time>2005-12-17T07:48:07Z</time>
            </trkpt>
            <trkpt lon="100.959785" lat="12.753861">
                <ele>52.048584</ele>
                <time>2005-12-17T07:48:16Z</time>
            </trkpt>
            <trkpt lon="100.959635" lat="12.753775">
                <ele>52.048584</ele>
                <time>2005-12-17T07:48:23Z</time>
            </trkpt>
            <trkpt lon="100.959613" lat="12.753174">
                <ele>52.529175</ele>
                <time>2005-12-17T07:48:37Z</time>
            </trkpt>
            <trkpt lon="100.959291" lat="12.752831">
                <ele>53.009766</ele>
                <time>2005-12-17T07:48:46Z</time>
            </trkpt>
            <trkpt lon="100.958111" lat="12.752595">
                <ele>52.529175</ele>
                <time>2005-12-17T07:49:06Z</time>
            </trkpt>
            <trkpt lon="100.957510" lat="12.752488">
                <ele>53.009766</ele>
                <time>2005-12-17T07:49:17Z</time>
            </trkpt>
            <trkpt lon="100.957339" lat="12.752295">
                <ele>53.971191</ele>
                <time>2005-12-17T07:49:24Z</time>
            </trkpt>
            <trkpt lon="100.957360" lat="12.751822">
                <ele>57.335815</ele>
                <time>2005-12-17T07:49:41Z</time>
            </trkpt>
            <trkpt lon="100.957382" lat="12.751501">
                <ele>59.739136</ele>
                <time>2005-12-17T07:49:53Z</time>
            </trkpt>
            <trkpt lon="100.957360" lat="12.751265">
                <ele>62.142334</ele>
                <time>2005-12-17T07:50:05Z</time>
            </trkpt>
            <trkpt lon="100.957682" lat="12.751179">
                <ele>62.622925</ele>
                <time>2005-12-17T07:50:18Z</time>
            </trkpt>
            <trkpt lon="100.958304" lat="12.751093">
                <ele>62.622925</ele>
                <time>2005-12-17T07:50:34Z</time>
            </trkpt>
            <trkpt lon="100.958498" lat="12.751093">
                <ele>61.661743</ele>
                <time>2005-12-17T07:50:38Z</time>
            </trkpt>
            <trkpt lon="100.959270" lat="12.750986">
                <ele>59.739136</ele>
                <time>2005-12-17T07:50:51Z</time>
            </trkpt>
            <trkpt lon="100.959721" lat="12.750685">
                <ele>60.700317</ele>
                <time>2005-12-17T07:51:04Z</time>
            </trkpt>
            <trkpt lon="100.960000" lat="12.750363">
                <ele>60.700317</ele>
                <time>2005-12-17T07:51:13Z</time>
            </trkpt>
            <trkpt lon="100.960300" lat="12.750106">
                <ele>60.700317</ele>
                <time>2005-12-17T07:51:21Z</time>
            </trkpt>
            <trkpt lon="100.960772" lat="12.749848">
                <ele>62.622925</ele>
                <time>2005-12-17T07:51:36Z</time>
            </trkpt>
            <trkpt lon="100.961459" lat="12.749441">
                <ele>63.584351</ele>
                <time>2005-12-17T07:51:55Z</time>
            </trkpt>
            <trkpt lon="100.961716" lat="12.749226">
                <ele>64.065063</ele>
                <time>2005-12-17T07:52:03Z</time>
            </trkpt>
            <trkpt lon="100.962017" lat="12.748475">
                <ele>64.545654</ele>
                <time>2005-12-17T07:52:20Z</time>
            </trkpt>
            <trkpt lon="100.962059" lat="12.748153">
                <ele>65.026367</ele>
                <time>2005-12-17T07:52:27Z</time>
            </trkpt>
            <trkpt lon="100.961823" lat="12.747252">
                <ele>65.507080</ele>
                <time>2005-12-17T07:52:44Z</time>
            </trkpt>
            <trkpt lon="100.961695" lat="12.746351">
                <ele>66.468262</ele>
                <time>2005-12-17T07:53:03Z</time>
            </trkpt>
            <trkpt lon="100.961695" lat="12.746050">
                <ele>66.948975</ele>
                <time>2005-12-17T07:53:17Z</time>
            </trkpt>
            <trkpt lon="100.961695" lat="12.746029">
                <ele>63.584351</ele>
                <time>2005-12-17T07:53:33Z</time>
            </trkpt>
            <trkpt lon="100.961695" lat="12.746029">
                <ele>62.142334</ele>
                <time>2005-12-17T08:05:22Z</time>
            </trkpt>
            <trkpt lon="100.961652" lat="12.746029">
                <ele>65.507080</ele>
                <time>2005-12-17T08:12:20Z</time>
            </trkpt>
            <trkpt lon="100.961781" lat="12.745728">
                <ele>65.507080</ele>
                <time>2005-12-17T08:12:32Z</time>
            </trkpt>
            <trkpt lon="100.961909" lat="12.745214">
                <ele>65.987671</ele>
                <time>2005-12-17T08:12:48Z</time>
            </trkpt>
            <trkpt lon="100.962017" lat="12.744613">
                <ele>65.987671</ele>
                <time>2005-12-17T08:13:04Z</time>
            </trkpt>
            <trkpt lon="100.962017" lat="12.744505">
                <ele>65.507080</ele>
                <time>2005-12-17T08:13:07Z</time>
            </trkpt>
            <trkpt lon="100.961781" lat="12.743819">
                <ele>69.832886</ele>
                <time>2005-12-17T08:13:25Z</time>
            </trkpt>
            <trkpt lon="100.961480" lat="12.743132">
                <ele>72.716919</ele>
                <time>2005-12-17T08:13:48Z</time>
            </trkpt>
            <trkpt lon="100.961201" lat="12.742467">
                <ele>75.600830</ele>
                <time>2005-12-17T08:14:09Z</time>
            </trkpt>
            <trkpt lon="100.960686" lat="12.741973">
                <ele>75.120239</ele>
                <time>2005-12-17T08:14:23Z</time>
            </trkpt>
            <trkpt lon="100.959764" lat="12.741351">
                <ele>75.120239</ele>
                <time>2005-12-17T08:14:42Z</time>
            </trkpt>
            <trkpt lon="100.959527" lat="12.741137">
                <ele>75.120239</ele>
                <time>2005-12-17T08:14:52Z</time>
            </trkpt>
            <trkpt lon="100.959506" lat="12.741094">
                <ele>72.716919</ele>
                <time>2005-12-17T08:15:14Z</time>
            </trkpt>
            <trkpt lon="100.959485" lat="12.741115">
                <ele>70.313477</ele>
                <time>2005-12-17T08:15:31Z</time>
            </trkpt>
            <trkpt lon="100.959506" lat="12.741094">
                <ele>67.910278</ele>
                <time>2005-12-17T08:15:54Z</time>
            </trkpt>
            <trkpt lon="100.959485" lat="12.740965">
                <ele>67.429688</ele>
                <time>2005-12-17T08:15:59Z</time>
            </trkpt>
            <trkpt lon="100.959356" lat="12.740772">
                <ele>67.910278</ele>
                <time>2005-12-17T08:16:05Z</time>
            </trkpt>
            <trkpt lon="100.959313" lat="12.740557">
                <ele>67.429688</ele>
                <time>2005-12-17T08:16:10Z</time>
            </trkpt>
            <trkpt lon="100.959356" lat="12.739763">
                <ele>64.065063</ele>
                <time>2005-12-17T08:16:27Z</time>
            </trkpt>
            <trkpt lon="100.959420" lat="12.739570">
                <ele>64.065063</ele>
                <time>2005-12-17T08:16:31Z</time>
            </trkpt>
            <trkpt lon="100.959914" lat="12.738883">
                <ele>64.545654</ele>
                <time>2005-12-17T08:16:48Z</time>
            </trkpt>
            <trkpt lon="100.960193" lat="12.738605">
                <ele>64.065063</ele>
                <time>2005-12-17T08:16:59Z</time>
            </trkpt>
            <trkpt lon="100.960622" lat="12.738433">
                <ele>63.584351</ele>
                <time>2005-12-17T08:17:15Z</time>
            </trkpt>
            <trkpt lon="100.961201" lat="12.738261">
                <ele>63.103638</ele>
                <time>2005-12-17T08:17:30Z</time>
            </trkpt>
            <trkpt lon="100.961823" lat="12.738175">
                <ele>65.987671</ele>
                <time>2005-12-17T08:17:47Z</time>
            </trkpt>
            <trkpt lon="100.962274" lat="12.738111">
                <ele>65.987671</ele>
                <time>2005-12-17T08:18:02Z</time>
            </trkpt>
            <trkpt lon="100.962296" lat="12.738047">
                <ele>65.987671</ele>
                <time>2005-12-17T08:18:06Z</time>
            </trkpt>
            <trkpt lon="100.962274" lat="12.737982">
                <ele>65.026367</ele>
                <time>2005-12-17T08:18:16Z</time>
            </trkpt>
            <trkpt lon="100.962274" lat="12.738004">
                <ele>65.026367</ele>
                <time>2005-12-17T08:18:24Z</time>
            </trkpt>
            <trkpt lon="100.962296" lat="12.738090">
                <ele>65.507080</ele>
                <time>2005-12-17T08:18:39Z</time>
            </trkpt>
            <trkpt lon="100.962296" lat="12.738111">
                <ele>62.142334</ele>
                <time>2005-12-17T08:19:07Z</time>
            </trkpt>
            <trkpt lon="100.962296" lat="12.738111">
                <ele>65.507080</ele>
                <time>2005-12-17T08:19:48Z</time>
            </trkpt>
            <trkpt lon="100.962274" lat="12.738111">
                <ele>65.987671</ele>
                <time>2005-12-17T08:19:52Z</time>
            </trkpt>
            <trkpt lon="100.961995" lat="12.738154">
                <ele>67.910278</ele>
                <time>2005-12-17T08:20:05Z</time>
            </trkpt>
            <trkpt lon="100.961502" lat="12.738218">
                <ele>68.871582</ele>
                <time>2005-12-17T08:20:22Z</time>
            </trkpt>
            <trkpt lon="100.960579" lat="12.738476">
                <ele>66.948975</ele>
                <time>2005-12-17T08:20:39Z</time>
            </trkpt>
            <trkpt lon="100.960300" lat="12.738583">
                <ele>65.987671</ele>
                <time>2005-12-17T08:20:44Z</time>
            </trkpt>
            <trkpt lon="100.959828" lat="12.738991">
                <ele>63.103638</ele>
                <time>2005-12-17T08:20:55Z</time>
            </trkpt>
            <trkpt lon="100.959764" lat="12.739034">
                <ele>63.584351</ele>
                <time>2005-12-17T08:20:57Z</time>
            </trkpt>
            <trkpt lon="100.959656" lat="12.738905">
                <ele>63.103638</ele>
                <time>2005-12-17T08:21:04Z</time>
            </trkpt>
            <trkpt lon="100.959399" lat="12.738218">
                <ele>61.181030</ele>
                <time>2005-12-17T08:21:20Z</time>
            </trkpt>
            <trkpt lon="100.959463" lat="12.738261">
                <ele>60.700317</ele>
                <time>2005-12-17T08:21:58Z</time>
            </trkpt>
            <trkpt lon="100.959420" lat="12.737961">
                <ele>59.739136</ele>
                <time>2005-12-17T08:22:11Z</time>
            </trkpt>
            <trkpt lon="100.959377" lat="12.737811">
                <ele>60.219727</ele>
                <time>2005-12-17T08:22:14Z</time>
            </trkpt>
            <trkpt lon="100.959442" lat="12.737296">
                <ele>56.855103</ele>
                <time>2005-12-17T08:22:25Z</time>
            </trkpt>
            <trkpt lon="100.959399" lat="12.737124">
                <ele>55.893799</ele>
                <time>2005-12-17T08:22:29Z</time>
            </trkpt>
            <trkpt lon="100.959227" lat="12.736802">
                <ele>55.893799</ele>
                <time>2005-12-17T08:22:37Z</time>
            </trkpt>
            <trkpt lon="100.959184" lat="12.736545">
                <ele>55.413086</ele>
                <time>2005-12-17T08:22:43Z</time>
            </trkpt>
            <trkpt lon="100.958755" lat="12.736008">
                <ele>53.490479</ele>
                <time>2005-12-17T08:22:58Z</time>
            </trkpt>
            <trkpt lon="100.958626" lat="12.735837">
                <ele>53.009766</ele>
                <time>2005-12-17T08:23:03Z</time>
            </trkpt>
            <trkpt lon="100.958498" lat="12.735622">
                <ele>52.529175</ele>
                <time>2005-12-17T08:23:08Z</time>
            </trkpt>
            <trkpt lon="100.958283" lat="12.735128">
                <ele>50.125977</ele>
                <time>2005-12-17T08:23:19Z</time>
            </trkpt>
            <trkpt lon="100.958025" lat="12.734656">
                <ele>48.683960</ele>
                <time>2005-12-17T08:23:32Z</time>
            </trkpt>
            <trkpt lon="100.957940" lat="12.734399">
                <ele>48.203369</ele>
                <time>2005-12-17T08:23:38Z</time>
            </trkpt>
            <trkpt lon="100.957747" lat="12.733884">
                <ele>45.319214</ele>
                <time>2005-12-17T08:23:53Z</time>
            </trkpt>
            <trkpt lon="100.957682" lat="12.733819">
                <ele>44.838623</ele>
                <time>2005-12-17T08:23:55Z</time>
            </trkpt>
            <trkpt lon="100.957532" lat="12.733841">
                <ele>44.838623</ele>
                <time>2005-12-17T08:23:59Z</time>
            </trkpt>
            <trkpt lon="100.957017" lat="12.734056">
                <ele>44.358032</ele>
                <time>2005-12-17T08:24:14Z</time>
            </trkpt>
            <trkpt lon="100.956287" lat="12.734313">
                <ele>42.435425</ele>
                <time>2005-12-17T08:24:32Z</time>
            </trkpt>
            <trkpt lon="100.956030" lat="12.734399">
                <ele>42.435425</ele>
                <time>2005-12-17T08:24:41Z</time>
            </trkpt>
            <trkpt lon="100.955536" lat="12.734571">
                <ele>42.916016</ele>
                <time>2005-12-17T08:24:55Z</time>
            </trkpt>
            <trkpt lon="100.955493" lat="12.734592">
                <ele>42.435425</ele>
                <time>2005-12-17T08:24:56Z</time>
            </trkpt>
            <trkpt lon="100.955408" lat="12.734613">
                <ele>42.916016</ele>
                <time>2005-12-17T08:24:58Z</time>
            </trkpt>
            <trkpt lon="100.954614" lat="12.734892">
                <ele>43.877319</ele>
                <time>2005-12-17T08:25:17Z</time>
            </trkpt>
            <trkpt lon="100.954206" lat="12.735000">
                <ele>42.916016</ele>
                <time>2005-12-17T08:25:27Z</time>
            </trkpt>
            <trkpt lon="100.953541" lat="12.735236">
                <ele>41.954712</ele>
                <time>2005-12-17T08:25:43Z</time>
            </trkpt>
            <trkpt lon="100.953219" lat="12.735364">
                <ele>43.396606</ele>
                <time>2005-12-17T08:25:56Z</time>
            </trkpt>
            <trkpt lon="100.952768" lat="12.735386">
                <ele>45.319214</ele>
                <time>2005-12-17T08:26:11Z</time>
            </trkpt>
            <trkpt lon="100.952253" lat="12.735493">
                <ele>46.761230</ele>
                <time>2005-12-17T08:26:26Z</time>
            </trkpt>
            <trkpt lon="100.951953" lat="12.735665">
                <ele>47.241821</ele>
                <time>2005-12-17T08:26:35Z</time>
            </trkpt>
            <trkpt lon="100.951481" lat="12.736030">
                <ele>46.761230</ele>
                <time>2005-12-17T08:26:48Z</time>
            </trkpt>
            <trkpt lon="100.950966" lat="12.736416">
                <ele>45.319214</ele>
                <time>2005-12-17T08:27:03Z</time>
            </trkpt>
            <trkpt lon="100.950665" lat="12.736588">
                <ele>46.280640</ele>
                <time>2005-12-17T08:27:11Z</time>
            </trkpt>
            <trkpt lon="100.949893" lat="12.737081">
                <ele>45.799927</ele>
                <time>2005-12-17T08:27:29Z</time>
            </trkpt>
            <trkpt lon="100.949764" lat="12.737145">
                <ele>46.280640</ele>
                <time>2005-12-17T08:27:32Z</time>
            </trkpt>
            <trkpt lon="100.949657" lat="12.737253">
                <ele>46.280640</ele>
                <time>2005-12-17T08:27:35Z</time>
            </trkpt>
            <trkpt lon="100.949485" lat="12.737339">
                <ele>45.319214</ele>
                <time>2005-12-17T08:27:39Z</time>
            </trkpt>
            <trkpt lon="100.949335" lat="12.737510">
                <ele>44.838623</ele>
                <time>2005-12-17T08:27:44Z</time>
            </trkpt>
            <trkpt lon="100.948949" lat="12.738304">
                <ele>46.280640</ele>
                <time>2005-12-17T08:28:03Z</time>
            </trkpt>
            <trkpt lon="100.948906" lat="12.738369">
                <ele>46.761230</ele>
                <time>2005-12-17T08:28:12Z</time>
            </trkpt>
            <trkpt lon="100.948927" lat="12.738476">
                <ele>47.241821</ele>
                <time>2005-12-17T08:28:18Z</time>
            </trkpt>
            <trkpt lon="100.949206" lat="12.738926">
                <ele>51.087158</ele>
                <time>2005-12-17T08:28:38Z</time>
            </trkpt>
            <trkpt lon="100.949442" lat="12.739420">
                <ele>48.203369</ele>
                <time>2005-12-17T08:28:55Z</time>
            </trkpt>
            <trkpt lon="100.949614" lat="12.739871">
                <ele>46.761230</ele>
                <time>2005-12-17T08:29:16Z</time>
            </trkpt>
            <trkpt lon="100.949936" lat="12.740300">
                <ele>46.761230</ele>
                <time>2005-12-17T08:29:31Z</time>
            </trkpt>
            <trkpt lon="100.950494" lat="12.740879">
                <ele>47.722534</ele>
                <time>2005-12-17T08:29:46Z</time>
            </trkpt>
            <trkpt lon="100.950944" lat="12.741716">
                <ele>46.761230</ele>
                <time>2005-12-17T08:30:06Z</time>
            </trkpt>
            <trkpt lon="100.950944" lat="12.742317">
                <ele>45.319214</ele>
                <time>2005-12-17T08:30:19Z</time>
            </trkpt>
            <trkpt lon="100.950451" lat="12.743025">
                <ele>48.683960</ele>
                <time>2005-12-17T08:30:40Z</time>
            </trkpt>
            <trkpt lon="100.949957" lat="12.743368">
                <ele>50.125977</ele>
                <time>2005-12-17T08:30:58Z</time>
            </trkpt>
            <trkpt lon="100.949485" lat="12.743540">
                <ele>50.125977</ele>
                <time>2005-12-17T08:31:13Z</time>
            </trkpt>
            <trkpt lon="100.949078" lat="12.743583">
                <ele>50.125977</ele>
                <time>2005-12-17T08:31:25Z</time>
            </trkpt>
            <trkpt lon="100.948412" lat="12.743626">
                <ele>51.087158</ele>
                <time>2005-12-17T08:31:42Z</time>
            </trkpt>
            <trkpt lon="100.947983" lat="12.743368">
                <ele>51.087158</ele>
                <time>2005-12-17T08:31:56Z</time>
            </trkpt>
            <trkpt lon="100.947790" lat="12.743111">
                <ele>52.048584</ele>
                <time>2005-12-17T08:32:07Z</time>
            </trkpt>
            <trkpt lon="100.947554" lat="12.743196">
                <ele>54.451782</ele>
                <time>2005-12-17T08:32:23Z</time>
            </trkpt>
            <trkpt lon="100.946953" lat="12.743797">
                <ele>50.606567</ele>
                <time>2005-12-17T08:33:38Z</time>
            </trkpt>
            <trkpt lon="100.946867" lat="12.743518">
                <ele>58.297119</ele>
                <time>2005-12-17T08:33:44Z</time>
            </trkpt>
            <trkpt lon="100.946739" lat="12.743454">
                <ele>69.352295</ele>
                <time>2005-12-17T08:34:03Z</time>
            </trkpt>
            <trkpt lon="100.946567" lat="12.743454">
                <ele>69.352295</ele>
                <time>2005-12-17T08:36:33Z</time>
            </trkpt>
            <trkpt lon="100.946181" lat="12.743282">
                <ele>70.794189</ele>
                <time>2005-12-17T08:36:47Z</time>
            </trkpt>
            <trkpt lon="100.946138" lat="12.743175">
                <ele>70.794189</ele>
                <time>2005-12-17T08:36:52Z</time>
            </trkpt>
            <trkpt lon="100.946181" lat="12.743154">
                <ele>69.352295</ele>
                <time>2005-12-17T08:37:08Z</time>
            </trkpt>
            <trkpt lon="100.946202" lat="12.743218">
                <ele>70.313477</ele>
                <time>2005-12-17T08:38:30Z</time>
            </trkpt>
            <trkpt lon="100.946202" lat="12.743239">
                <ele>70.794189</ele>
                <time>2005-12-17T08:38:33Z</time>
            </trkpt>
            <trkpt lon="100.946245" lat="12.743304">
                <ele>70.313477</ele>
                <time>2005-12-17T08:38:42Z</time>
            </trkpt>
            <trkpt lon="100.946546" lat="12.743454">
                <ele>68.390869</ele>
                <time>2005-12-17T08:38:55Z</time>
            </trkpt>
            <trkpt lon="100.946760" lat="12.743497">
                <ele>67.429688</ele>
                <time>2005-12-17T08:39:09Z</time>
            </trkpt>
            <trkpt lon="100.946782" lat="12.743475">
                <ele>66.948975</ele>
                <time>2005-12-17T08:39:47Z</time>
            </trkpt>
            <trkpt lon="100.946782" lat="12.743497">
                <ele>66.948975</ele>
                <time>2005-12-17T08:40:08Z</time>
            </trkpt>
            <trkpt lon="100.946803" lat="12.743497">
                <ele>66.948975</ele>
                <time>2005-12-17T08:40:11Z</time>
            </trkpt>
            <trkpt lon="100.947082" lat="12.743497">
                <ele>61.661743</ele>
                <time>2005-12-17T08:40:25Z</time>
            </trkpt>
            <trkpt lon="100.947211" lat="12.743433">
                <ele>60.219727</ele>
                <time>2005-12-17T08:40:29Z</time>
            </trkpt>
            <trkpt lon="100.947640" lat="12.743154">
                <ele>52.048584</ele>
                <time>2005-12-17T08:40:43Z</time>
            </trkpt>
            <trkpt lon="100.947769" lat="12.743132">
                <ele>51.567871</ele>
                <time>2005-12-17T08:40:49Z</time>
            </trkpt>
            <trkpt lon="100.948262" lat="12.743239">
                <ele>49.645264</ele>
                <time>2005-12-17T08:41:02Z</time>
            </trkpt>
            <trkpt lon="100.948584" lat="12.743368">
                <ele>50.606567</ele>
                <time>2005-12-17T08:41:16Z</time>
            </trkpt>
            <trkpt lon="100.949142" lat="12.743583">
                <ele>52.048584</ele>
                <time>2005-12-17T08:41:36Z</time>
            </trkpt>
            <trkpt lon="100.949571" lat="12.743518">
                <ele>52.529175</ele>
                <time>2005-12-17T08:41:49Z</time>
            </trkpt>
            <trkpt lon="100.950022" lat="12.743261">
                <ele>51.567871</ele>
                <time>2005-12-17T08:42:03Z</time>
            </trkpt>
            <trkpt lon="100.950086" lat="12.743239">
                <ele>51.567871</ele>
                <time>2005-12-17T08:42:05Z</time>
            </trkpt>
            <trkpt lon="100.950236" lat="12.743411">
                <ele>53.009766</ele>
                <time>2005-12-17T08:42:13Z</time>
            </trkpt>
            <trkpt lon="100.950429" lat="12.743990">
                <ele>54.451782</ele>
                <time>2005-12-17T08:42:33Z</time>
            </trkpt>
            <trkpt lon="100.950794" lat="12.744548">
                <ele>56.374512</ele>
                <time>2005-12-17T08:42:55Z</time>
            </trkpt>
            <trkpt lon="100.951116" lat="12.744892">
                <ele>57.816528</ele>
                <time>2005-12-17T08:43:10Z</time>
            </trkpt>
            <trkpt lon="100.951266" lat="12.745042">
                <ele>58.777710</ele>
                <time>2005-12-17T08:43:18Z</time>
            </trkpt>
            <trkpt lon="100.951223" lat="12.745171">
                <ele>58.297119</ele>
                <time>2005-12-17T08:43:23Z</time>
            </trkpt>
            <trkpt lon="100.950923" lat="12.745492">
                <ele>60.700317</ele>
                <time>2005-12-17T08:43:41Z</time>
            </trkpt>
            <trkpt lon="100.950644" lat="12.745707">
                <ele>62.142334</ele>
                <time>2005-12-17T08:43:57Z</time>
            </trkpt>
            <trkpt lon="100.950258" lat="12.746007">
                <ele>64.545654</ele>
                <time>2005-12-17T08:44:16Z</time>
            </trkpt>
            <trkpt lon="100.949764" lat="12.746329">
                <ele>67.429688</ele>
                <time>2005-12-17T08:44:36Z</time>
            </trkpt>
            <trkpt lon="100.949314" lat="12.746630">
                <ele>70.313477</ele>
                <time>2005-12-17T08:44:56Z</time>
            </trkpt>
            <trkpt lon="100.949013" lat="12.746844">
                <ele>74.158813</ele>
                <time>2005-12-17T08:45:14Z</time>
            </trkpt>
            <trkpt lon="100.948734" lat="12.747016">
                <ele>78.004028</ele>
                <time>2005-12-17T08:45:31Z</time>
            </trkpt>
            <trkpt lon="100.948412" lat="12.747231">
                <ele>81.368774</ele>
                <time>2005-12-17T08:45:48Z</time>
            </trkpt>
            <trkpt lon="100.948005" lat="12.747402">
                <ele>83.291382</ele>
                <time>2005-12-17T08:46:06Z</time>
            </trkpt>
            <trkpt lon="100.947468" lat="12.747231">
                <ele>83.291382</ele>
                <time>2005-12-17T08:46:22Z</time>
            </trkpt>
            <trkpt lon="100.947039" lat="12.747467">
                <ele>82.810791</ele>
                <time>2005-12-17T08:46:36Z</time>
            </trkpt>
            <trkpt lon="100.946825" lat="12.747574">
                <ele>80.407471</ele>
                <time>2005-12-17T08:46:42Z</time>
            </trkpt>
            <trkpt lon="100.945945" lat="12.748110">
                <ele>74.639526</ele>
                <time>2005-12-17T08:46:58Z</time>
            </trkpt>
            <trkpt lon="100.945816" lat="12.748175">
                <ele>75.120239</ele>
                <time>2005-12-17T08:47:00Z</time>
            </trkpt>
            <trkpt lon="100.945237" lat="12.748260">
                <ele>73.197632</ele>
                <time>2005-12-17T08:47:09Z</time>
            </trkpt>
            <trkpt lon="100.944872" lat="12.748153">
                <ele>70.313477</ele>
                <time>2005-12-17T08:47:16Z</time>
            </trkpt>
            <trkpt lon="100.943971" lat="12.747831">
                <ele>65.026367</ele>
                <time>2005-12-17T08:47:30Z</time>
            </trkpt>
            <trkpt lon="100.943606" lat="12.747896">
                <ele>63.584351</ele>
                <time>2005-12-17T08:47:36Z</time>
            </trkpt>
            <trkpt lon="100.943305" lat="12.748260">
                <ele>60.700317</ele>
                <time>2005-12-17T08:47:48Z</time>
            </trkpt>
            <trkpt lon="100.942919" lat="12.748818">
                <ele>56.855103</ele>
                <time>2005-12-17T08:48:01Z</time>
            </trkpt>
            <trkpt lon="100.942125" lat="12.749290">
                <ele>51.567871</ele>
                <time>2005-12-17T08:48:13Z</time>
            </trkpt>
            <trkpt lon="100.940859" lat="12.749977">
                <ele>45.319214</ele>
                <time>2005-12-17T08:48:29Z</time>
            </trkpt>
            <trkpt lon="100.940280" lat="12.750278">
                <ele>43.396606</ele>
                <time>2005-12-17T08:48:37Z</time>
            </trkpt>
            <trkpt lon="100.939915" lat="12.750256">
                <ele>42.435425</ele>
                <time>2005-12-17T08:48:42Z</time>
            </trkpt>
            <trkpt lon="100.938370" lat="12.749569">
                <ele>41.954712</ele>
                <time>2005-12-17T08:49:06Z</time>
            </trkpt>
            <trkpt lon="100.937018" lat="12.748969">
                <ele>38.109375</ele>
                <time>2005-12-17T08:49:28Z</time>
            </trkpt>
            <trkpt lon="100.935774" lat="12.748432">
                <ele>33.783447</ele>
                <time>2005-12-17T08:49:47Z</time>
            </trkpt>
            <trkpt lon="100.934722" lat="12.747960">
                <ele>33.783447</ele>
                <time>2005-12-17T08:50:05Z</time>
            </trkpt>
            <trkpt lon="100.934122" lat="12.747853">
                <ele>33.783447</ele>
                <time>2005-12-17T08:50:17Z</time>
            </trkpt>
            <trkpt lon="100.933800" lat="12.748153">
                <ele>34.744873</ele>
                <time>2005-12-17T08:50:28Z</time>
            </trkpt>
            <trkpt lon="100.933542" lat="12.748497">
                <ele>35.706055</ele>
                <time>2005-12-17T08:50:37Z</time>
            </trkpt>
            <trkpt lon="100.933392" lat="12.748604">
                <ele>37.628662</ele>
                <time>2005-12-17T08:50:41Z</time>
            </trkpt>
            <trkpt lon="100.933306" lat="12.748604">
                <ele>38.590088</ele>
                <time>2005-12-17T08:50:45Z</time>
            </trkpt>
            <trkpt lon="100.933242" lat="12.748604">
                <ele>39.551270</ele>
                <time>2005-12-17T08:50:59Z</time>
            </trkpt>
            <trkpt lon="100.933242" lat="12.748647">
                <ele>44.358032</ele>
                <time>2005-12-17T08:51:28Z</time>
            </trkpt>
            <trkpt lon="100.933285" lat="12.748647">
                <ele>44.358032</ele>
                <time>2005-12-17T08:52:33Z</time>
            </trkpt>
            <trkpt lon="100.933263" lat="12.748647">
                <ele>44.838623</ele>
                <time>2005-12-17T08:53:00Z</time>
            </trkpt>
            <trkpt lon="100.932963" lat="12.748840">
                <ele>45.319214</ele>
                <time>2005-12-17T08:53:12Z</time>
            </trkpt>
            <trkpt lon="100.932426" lat="12.749484">
                <ele>43.396606</ele>
                <time>2005-12-17T08:53:30Z</time>
            </trkpt>
            <trkpt lon="100.931997" lat="12.749934">
                <ele>42.916016</ele>
                <time>2005-12-17T08:53:42Z</time>
            </trkpt>
            <trkpt lon="100.931096" lat="12.750320">
                <ele>41.954712</ele>
                <time>2005-12-17T08:54:03Z</time>
            </trkpt>
            <trkpt lon="100.930946" lat="12.750342">
                <ele>42.916016</ele>
                <time>2005-12-17T08:54:12Z</time>
            </trkpt>
            <trkpt lon="100.930946" lat="12.750342">
                <ele>44.358032</ele>
                <time>2005-12-17T08:54:40Z</time>
            </trkpt>
            <trkpt lon="100.930924" lat="12.750363">
                <ele>48.203369</ele>
                <time>2005-12-17T08:56:46Z</time>
            </trkpt>
            <trkpt lon="100.930581" lat="12.750514">
                <ele>47.722534</ele>
                <time>2005-12-17T08:56:59Z</time>
            </trkpt>
            <trkpt lon="100.929637" lat="12.750814">
                <ele>46.761230</ele>
                <time>2005-12-17T08:57:17Z</time>
            </trkpt>
            <trkpt lon="100.928907" lat="12.751050">
                <ele>46.761230</ele>
                <time>2005-12-17T08:57:30Z</time>
            </trkpt>
            <trkpt lon="100.928800" lat="12.751179">
                <ele>45.799927</ele>
                <time>2005-12-17T08:57:38Z</time>
            </trkpt>
            <trkpt lon="100.928800" lat="12.751157">
                <ele>45.799927</ele>
                <time>2005-12-17T08:57:49Z</time>
            </trkpt>
            <trkpt lon="100.928779" lat="12.751136">
                <ele>46.761230</ele>
                <time>2005-12-17T08:57:53Z</time>
            </trkpt>
            <trkpt lon="100.928671" lat="12.751136">
                <ele>47.241821</ele>
                <time>2005-12-17T08:57:59Z</time>
            </trkpt>
            <trkpt lon="100.927985" lat="12.751286">
                <ele>45.799927</ele>
                <time>2005-12-17T08:58:20Z</time>
            </trkpt>
            <trkpt lon="100.927320" lat="12.751265">
                <ele>49.645264</ele>
                <time>2005-12-17T08:58:39Z</time>
            </trkpt>
            <trkpt lon="100.926633" lat="12.751265">
                <ele>51.087158</ele>
                <time>2005-12-17T08:58:57Z</time>
            </trkpt>
            <trkpt lon="100.925946" lat="12.751307">
                <ele>51.087158</ele>
                <time>2005-12-17T08:59:14Z</time>
            </trkpt>
            <trkpt lon="100.925217" lat="12.751243">
                <ele>53.009766</ele>
                <time>2005-12-17T08:59:33Z</time>
            </trkpt>
            <trkpt lon="100.924680" lat="12.751265">
                <ele>54.932373</ele>
                <time>2005-12-17T08:59:48Z</time>
            </trkpt>
            <trkpt lon="100.923951" lat="12.751586">
                <ele>54.932373</ele>
                <time>2005-12-17T09:00:10Z</time>
            </trkpt>
            <trkpt lon="100.923307" lat="12.751951">
                <ele>57.335815</ele>
                <time>2005-12-17T09:00:29Z</time>
            </trkpt>
            <trkpt lon="100.922749" lat="12.752144">
                <ele>58.297119</ele>
                <time>2005-12-17T09:00:42Z</time>
            </trkpt>
            <trkpt lon="100.922019" lat="12.752402">
                <ele>59.258423</ele>
                <time>2005-12-17T09:01:00Z</time>
            </trkpt>
            <trkpt lon="100.921698" lat="12.752445">
                <ele>59.739136</ele>
                <time>2005-12-17T09:01:07Z</time>
            </trkpt>
            <trkpt lon="100.921333" lat="12.752402">
                <ele>60.219727</ele>
                <time>2005-12-17T09:01:15Z</time>
            </trkpt>
            <trkpt lon="100.921032" lat="12.752337">
                <ele>58.777710</ele>
                <time>2005-12-17T09:01:23Z</time>
            </trkpt>
            <trkpt lon="100.920925" lat="12.752488">
                <ele>57.335815</ele>
                <time>2005-12-17T09:01:28Z</time>
            </trkpt>
            <trkpt lon="100.920904" lat="12.752767">
                <ele>56.374512</ele>
                <time>2005-12-17T09:01:34Z</time>
            </trkpt>
            <trkpt lon="100.920904" lat="12.752938">
                <ele>55.893799</ele>
                <time>2005-12-17T09:01:38Z</time>
            </trkpt>
            <trkpt lon="100.921032" lat="12.753088">
                <ele>56.374512</ele>
                <time>2005-12-17T09:01:42Z</time>
            </trkpt>
            <trkpt lon="100.921655" lat="12.753539">
                <ele>53.971191</ele>
                <time>2005-12-17T09:01:57Z</time>
            </trkpt>
            <trkpt lon="100.922062" lat="12.753689">
                <ele>53.009766</ele>
                <time>2005-12-17T09:02:08Z</time>
            </trkpt>
            <trkpt lon="100.922749" lat="12.753861">
                <ele>51.087158</ele>
                <time>2005-12-17T09:02:27Z</time>
            </trkpt>
            <trkpt lon="100.922771" lat="12.753904">
                <ele>50.606567</ele>
                <time>2005-12-17T09:02:30Z</time>
            </trkpt>
            <trkpt lon="100.922813" lat="12.753925">
                <ele>50.606567</ele>
                <time>2005-12-17T09:02:43Z</time>
            </trkpt>
            <trkpt lon="100.922813" lat="12.753947">
                <ele>50.606567</ele>
                <time>2005-12-17T09:02:44Z</time>
            </trkpt>
            <trkpt lon="100.922899" lat="12.754033">
                <ele>50.125977</ele>
                <time>2005-12-17T09:02:50Z</time>
            </trkpt>
            <trkpt lon="100.923157" lat="12.754526">
                <ele>47.722534</ele>
                <time>2005-12-17T09:03:06Z</time>
            </trkpt>
            <trkpt lon="100.923414" lat="12.754955">
                <ele>46.280640</ele>
                <time>2005-12-17T09:03:22Z</time>
            </trkpt>
            <trkpt lon="100.923650" lat="12.755470">
                <ele>43.396606</ele>
                <time>2005-12-17T09:03:37Z</time>
            </trkpt>
            <trkpt lon="100.923800" lat="12.755771">
                <ele>41.954712</ele>
                <time>2005-12-17T09:03:49Z</time>
            </trkpt>
            <trkpt lon="100.924079" lat="12.756393">
                <ele>40.032104</ele>
                <time>2005-12-17T09:04:04Z</time>
            </trkpt>
            <trkpt lon="100.924423" lat="12.757144">
                <ele>37.628662</ele>
                <time>2005-12-17T09:04:21Z</time>
            </trkpt>
            <trkpt lon="100.924594" lat="12.757573">
                <ele>36.667480</ele>
                <time>2005-12-17T09:04:30Z</time>
            </trkpt>
            <trkpt lon="100.924830" lat="12.758560">
                <ele>36.667480</ele>
                <time>2005-12-17T09:04:50Z</time>
            </trkpt>
            <trkpt lon="100.925045" lat="12.759418">
                <ele>32.341553</ele>
                <time>2005-12-17T09:05:07Z</time>
            </trkpt>
            <trkpt lon="100.925088" lat="12.759590">
                <ele>31.860718</ele>
                <time>2005-12-17T09:05:11Z</time>
            </trkpt>
            <trkpt lon="100.925303" lat="12.759719">
                <ele>31.380127</ele>
                <time>2005-12-17T09:05:17Z</time>
            </trkpt>
            <trkpt lon="100.925968" lat="12.759719">
                <ele>30.899536</ele>
                <time>2005-12-17T09:05:30Z</time>
            </trkpt>
            <trkpt lon="100.926268" lat="12.759805">
                <ele>30.899536</ele>
                <time>2005-12-17T09:05:37Z</time>
            </trkpt>
            <trkpt lon="100.926719" lat="12.760170">
                <ele>30.899536</ele>
                <time>2005-12-17T09:05:51Z</time>
            </trkpt>
            <trkpt lon="100.926762" lat="12.760320">
                <ele>30.418823</ele>
                <time>2005-12-17T09:05:55Z</time>
            </trkpt>
            <trkpt lon="100.926590" lat="12.761049">
                <ele>29.457520</ele>
                <time>2005-12-17T09:06:11Z</time>
            </trkpt>
            <trkpt lon="100.926397" lat="12.762036">
                <ele>29.457520</ele>
                <time>2005-12-17T09:06:32Z</time>
            </trkpt>
            <trkpt lon="100.926225" lat="12.763023">
                <ele>27.534912</ele>
                <time>2005-12-17T09:06:52Z</time>
            </trkpt>
            <trkpt lon="100.926204" lat="12.763238">
                <ele>27.534912</ele>
                <time>2005-12-17T09:06:56Z</time>
            </trkpt>
            <trkpt lon="100.926032" lat="12.764182">
                <ele>27.534912</ele>
                <time>2005-12-17T09:07:15Z</time>
            </trkpt>
            <trkpt lon="100.925860" lat="12.765062">
                <ele>28.015503</ele>
                <time>2005-12-17T09:07:32Z</time>
            </trkpt>
            <trkpt lon="100.925753" lat="12.765770">
                <ele>28.015503</ele>
                <time>2005-12-17T09:07:49Z</time>
            </trkpt>
            <trkpt lon="100.925753" lat="12.765813">
                <ele>28.976929</ele>
                <time>2005-12-17T09:07:51Z</time>
            </trkpt>
            <trkpt lon="100.925839" lat="12.765791">
                <ele>29.938110</ele>
                <time>2005-12-17T09:08:02Z</time>
            </trkpt>
            <trkpt lon="100.925882" lat="12.765770">
                <ele>30.899536</ele>
                <time>2005-12-17T09:08:42Z</time>
            </trkpt>
            <trkpt lon="100.925925" lat="12.765770">
                <ele>30.418823</ele>
                <time>2005-12-17T09:08:45Z</time>
            </trkpt>
            <trkpt lon="100.925968" lat="12.765920">
                <ele>28.976929</ele>
                <time>2005-12-17T09:08:50Z</time>
            </trkpt>
            <trkpt lon="100.925817" lat="12.766736">
                <ele>29.457520</ele>
                <time>2005-12-17T09:09:07Z</time>
            </trkpt>
            <trkpt lon="100.925775" lat="12.766972">
                <ele>29.457520</ele>
                <time>2005-12-17T09:09:12Z</time>
            </trkpt>
            <trkpt lon="100.925775" lat="12.767079">
                <ele>28.976929</ele>
                <time>2005-12-17T09:09:15Z</time>
            </trkpt>
            <trkpt lon="100.925946" lat="12.767401">
                <ele>28.015503</ele>
                <time>2005-12-17T09:09:22Z</time>
            </trkpt>
            <trkpt lon="100.926569" lat="12.767916">
                <ele>27.534912</ele>
                <time>2005-12-17T09:09:36Z</time>
            </trkpt>
            <trkpt lon="100.927405" lat="12.768152">
                <ele>27.534912</ele>
                <time>2005-12-17T09:09:51Z</time>
            </trkpt>
            <trkpt lon="100.927448" lat="12.768173">
                <ele>27.534912</ele>
                <time>2005-12-17T09:09:52Z</time>
            </trkpt>
            <trkpt lon="100.927598" lat="12.768259">
                <ele>27.054321</ele>
                <time>2005-12-17T09:09:55Z</time>
            </trkpt>
            <trkpt lon="100.928156" lat="12.768989">
                <ele>25.612305</ele>
                <time>2005-12-17T09:10:10Z</time>
            </trkpt>
            <trkpt lon="100.928693" lat="12.770169">
                <ele>26.092896</ele>
                <time>2005-12-17T09:10:31Z</time>
            </trkpt>
            <trkpt lon="100.929315" lat="12.771134">
                <ele>25.131714</ele>
                <time>2005-12-17T09:10:50Z</time>
            </trkpt>
            <trkpt lon="100.929358" lat="12.771177">
                <ele>25.131714</ele>
                <time>2005-12-17T09:10:51Z</time>
            </trkpt>
            <trkpt lon="100.929401" lat="12.771327">
                <ele>25.131714</ele>
                <time>2005-12-17T09:10:55Z</time>
            </trkpt>
            <trkpt lon="100.929315" lat="12.771714">
                <ele>23.208984</ele>
                <time>2005-12-17T09:11:03Z</time>
            </trkpt>
            <trkpt lon="100.928993" lat="12.772572">
                <ele>23.208984</ele>
                <time>2005-12-17T09:11:18Z</time>
            </trkpt>
            <trkpt lon="100.928972" lat="12.773087">
                <ele>23.208984</ele>
                <time>2005-12-17T09:11:26Z</time>
            </trkpt>
            <trkpt lon="100.929015" lat="12.773323">
                <ele>23.208984</ele>
                <time>2005-12-17T09:11:30Z</time>
            </trkpt>
            <trkpt lon="100.929229" lat="12.773838">
                <ele>23.689575</ele>
                <time>2005-12-17T09:11:39Z</time>
            </trkpt>
            <trkpt lon="100.929444" lat="12.774138">
                <ele>23.689575</ele>
                <time>2005-12-17T09:11:45Z</time>
            </trkpt>
            <trkpt lon="100.929937" lat="12.775104">
                <ele>23.689575</ele>
                <time>2005-12-17T09:12:04Z</time>
            </trkpt>
            <trkpt lon="100.929959" lat="12.775276">
                <ele>23.689575</ele>
                <time>2005-12-17T09:12:16Z</time>
            </trkpt>
            <trkpt lon="100.929980" lat="12.775598">
                <ele>23.689575</ele>
                <time>2005-12-17T09:12:31Z</time>
            </trkpt>
            <trkpt lon="100.930002" lat="12.775791">
                <ele>25.131714</ele>
                <time>2005-12-17T09:12:36Z</time>
            </trkpt>
            <trkpt lon="100.929809" lat="12.776198">
                <ele>25.612305</ele>
                <time>2005-12-17T09:12:45Z</time>
            </trkpt>
            <trkpt lon="100.929766" lat="12.776370">
                <ele>26.573608</ele>
                <time>2005-12-17T09:12:48Z</time>
            </trkpt>
            <trkpt lon="100.929809" lat="12.776735">
                <ele>26.092896</ele>
                <time>2005-12-17T09:12:55Z</time>
            </trkpt>
            <trkpt lon="100.929744" lat="12.776949">
                <ele>25.131714</ele>
                <time>2005-12-17T09:12:59Z</time>
            </trkpt>
            <trkpt lon="100.929573" lat="12.777336">
                <ele>24.651001</ele>
                <time>2005-12-17T09:13:06Z</time>
            </trkpt>
            <trkpt lon="100.929573" lat="12.777636">
                <ele>24.170288</ele>
                <time>2005-12-17T09:13:11Z</time>
            </trkpt>
            <trkpt lon="100.929744" lat="12.777808">
                <ele>24.170288</ele>
                <time>2005-12-17T09:13:17Z</time>
            </trkpt>
            <trkpt lon="100.929873" lat="12.777786">
                <ele>23.208984</ele>
                <time>2005-12-17T09:13:20Z</time>
            </trkpt>
            <trkpt lon="100.930538" lat="12.777765">
                <ele>21.286377</ele>
                <time>2005-12-17T09:13:35Z</time>
            </trkpt>
            <trkpt lon="100.930989" lat="12.777700">
                <ele>20.324951</ele>
                <time>2005-12-17T09:13:46Z</time>
            </trkpt>
            <trkpt lon="100.931118" lat="12.777550">
                <ele>18.883057</ele>
                <time>2005-12-17T09:13:54Z</time>
            </trkpt>
            <trkpt lon="100.931182" lat="12.777336">
                <ele>17.921753</ele>
                <time>2005-12-17T09:14:03Z</time>
            </trkpt>
            <trkpt lon="100.931246" lat="12.777121">
                <ele>17.921753</ele>
                <time>2005-12-17T09:14:09Z</time>
            </trkpt>
            <trkpt lon="100.931246" lat="12.776821">
                <ele>16.479736</ele>
                <time>2005-12-17T09:14:18Z</time>
            </trkpt>
            <trkpt lon="100.931761" lat="12.776756">
                <ele>15.037720</ele>
                <time>2005-12-17T09:14:34Z</time>
            </trkpt>
            <trkpt lon="100.932233" lat="12.776606">
                <ele>16.960449</ele>
                <time>2005-12-17T09:14:50Z</time>
            </trkpt>
            <trkpt lon="100.932705" lat="12.776499">
                <ele>18.402344</ele>
                <time>2005-12-17T09:15:04Z</time>
            </trkpt>
            <trkpt lon="100.933285" lat="12.776349">
                <ele>19.844360</ele>
                <time>2005-12-17T09:15:24Z</time>
            </trkpt>
            <trkpt lon="100.933692" lat="12.776241">
                <ele>21.766968</ele>
                <time>2005-12-17T09:15:40Z</time>
            </trkpt>
            <trkpt lon="100.933950" lat="12.776241">
                <ele>22.247559</ele>
                <time>2005-12-17T09:15:53Z</time>
            </trkpt>
            <trkpt lon="100.933993" lat="12.776220">
                <ele>22.728271</ele>
                <time>2005-12-17T09:15:55Z</time>
            </trkpt>
            <trkpt lon="100.934079" lat="12.776284">
                <ele>23.689575</ele>
                <time>2005-12-17T09:16:01Z</time>
            </trkpt>
            <trkpt lon="100.934207" lat="12.776670">
                <ele>24.651001</ele>
                <time>2005-12-17T09:16:16Z</time>
            </trkpt>
            <trkpt lon="100.934336" lat="12.777121">
                <ele>25.612305</ele>
                <time>2005-12-17T09:16:30Z</time>
            </trkpt>
            <trkpt lon="100.934379" lat="12.777421">
                <ele>24.170288</ele>
                <time>2005-12-17T09:16:44Z</time>
            </trkpt>
            <trkpt lon="100.934358" lat="12.777421">
                <ele>23.208984</ele>
                <time>2005-12-17T09:17:06Z</time>
            </trkpt>
            <trkpt lon="100.934358" lat="12.777400">
                <ele>25.131714</ele>
                <time>2005-12-17T09:17:49Z</time>
            </trkpt>
            <trkpt lon="100.934379" lat="12.777400">
                <ele>26.092896</ele>
                <time>2005-12-17T09:18:03Z</time>
            </trkpt>
            <trkpt lon="100.934401" lat="12.777529">
                <ele>25.131714</ele>
                <time>2005-12-17T09:18:12Z</time>
            </trkpt>
            <trkpt lon="100.934529" lat="12.777529">
                <ele>24.170288</ele>
                <time>2005-12-17T09:18:19Z</time>
            </trkpt>
            <trkpt lon="100.935087" lat="12.777464">
                <ele>25.612305</ele>
                <time>2005-12-17T09:18:40Z</time>
            </trkpt>
            <trkpt lon="100.935624" lat="12.777507">
                <ele>28.496216</ele>
                <time>2005-12-17T09:18:58Z</time>
            </trkpt>
            <trkpt lon="100.936010" lat="12.777357">
                <ele>30.899536</ele>
                <time>2005-12-17T09:19:10Z</time>
            </trkpt>
            <trkpt lon="100.936718" lat="12.776885">
                <ele>30.418823</ele>
                <time>2005-12-17T09:19:35Z</time>
            </trkpt>
            <trkpt lon="100.937083" lat="12.776349">
                <ele>32.822266</ele>
                <time>2005-12-17T09:19:53Z</time>
            </trkpt>
            <trkpt lon="100.937383" lat="12.775877">
                <ele>34.264160</ele>
                <time>2005-12-17T09:20:08Z</time>
            </trkpt>
            <trkpt lon="100.937726" lat="12.775662">
                <ele>34.744873</ele>
                <time>2005-12-17T09:20:19Z</time>
            </trkpt>
            <trkpt lon="100.938134" lat="12.775447">
                <ele>35.706055</ele>
                <time>2005-12-17T09:20:33Z</time>
            </trkpt>
            <trkpt lon="100.938671" lat="12.774954">
                <ele>37.628662</ele>
                <time>2005-12-17T09:20:53Z</time>
            </trkpt>
            <trkpt lon="100.938928" lat="12.774782">
                <ele>38.590088</ele>
                <time>2005-12-17T09:21:02Z</time>
            </trkpt>
            <trkpt lon="100.939035" lat="12.774868">
                <ele>38.590088</ele>
                <time>2005-12-17T09:21:07Z</time>
            </trkpt>
            <trkpt lon="100.939658" lat="12.775383">
                <ele>38.109375</ele>
                <time>2005-12-17T09:21:27Z</time>
            </trkpt>
            <trkpt lon="100.940237" lat="12.775877">
                <ele>38.109375</ele>
                <time>2005-12-17T09:21:43Z</time>
            </trkpt>
            <trkpt lon="100.940645" lat="12.776027">
                <ele>37.628662</ele>
                <time>2005-12-17T09:21:52Z</time>
            </trkpt>
            <trkpt lon="100.940924" lat="12.775919">
                <ele>37.628662</ele>
                <time>2005-12-17T09:21:59Z</time>
            </trkpt>
            <trkpt lon="100.941396" lat="12.775319">
                <ele>37.628662</ele>
                <time>2005-12-17T09:22:17Z</time>
            </trkpt>
            <trkpt lon="100.941954" lat="12.774889">
                <ele>38.109375</ele>
                <time>2005-12-17T09:22:35Z</time>
            </trkpt>
            <trkpt lon="100.942318" lat="12.774761">
                <ele>38.109375</ele>
                <time>2005-12-17T09:22:45Z</time>
            </trkpt>
            <trkpt lon="100.943027" lat="12.774525">
                <ele>37.628662</ele>
                <time>2005-12-17T09:23:04Z</time>
            </trkpt>
            <trkpt lon="100.943606" lat="12.774203">
                <ele>39.551270</ele>
                <time>2005-12-17T09:23:20Z</time>
            </trkpt>
            <trkpt lon="100.943992" lat="12.773645">
                <ele>40.032104</ele>
                <time>2005-12-17T09:23:36Z</time>
            </trkpt>
            <trkpt lon="100.944121" lat="12.773495">
                <ele>40.512817</ele>
                <time>2005-12-17T09:23:41Z</time>
            </trkpt>
            <trkpt lon="100.944164" lat="12.773366">
                <ele>40.993408</ele>
                <time>2005-12-17T09:23:44Z</time>
            </trkpt>
            <trkpt lon="100.944207" lat="12.772465">
                <ele>41.954712</ele>
                <time>2005-12-17T09:24:03Z</time>
            </trkpt>
            <trkpt lon="100.944357" lat="12.771671">
                <ele>44.358032</ele>
                <time>2005-12-17T09:24:21Z</time>
            </trkpt>
            <trkpt lon="100.944357" lat="12.771606">
                <ele>44.358032</ele>
                <time>2005-12-17T09:24:30Z</time>
            </trkpt>
            <trkpt lon="100.944357" lat="12.771606">
                <ele>45.799927</ele>
                <time>2005-12-17T09:24:44Z</time>
            </trkpt>
            <trkpt lon="100.944293" lat="12.771971">
                <ele>45.799927</ele>
                <time>2005-12-17T09:24:56Z</time>
            </trkpt>
            <trkpt lon="100.944185" lat="12.772937">
                <ele>45.319214</ele>
                <time>2005-12-17T09:25:17Z</time>
            </trkpt>
            <trkpt lon="100.944142" lat="12.773452">
                <ele>44.838623</ele>
                <time>2005-12-17T09:25:30Z</time>
            </trkpt>
            <trkpt lon="100.943735" lat="12.774053">
                <ele>46.761230</ele>
                <time>2005-12-17T09:25:46Z</time>
            </trkpt>
            <trkpt lon="100.943670" lat="12.774181">
                <ele>46.761230</ele>
                <time>2005-12-17T09:25:49Z</time>
            </trkpt>
            <trkpt lon="100.943799" lat="12.774718">
                <ele>45.319214</ele>
                <time>2005-12-17T09:26:00Z</time>
            </trkpt>
            <trkpt lon="100.943992" lat="12.775533">
                <ele>42.435425</ele>
                <time>2005-12-17T09:26:16Z</time>
            </trkpt>
            <trkpt lon="100.944314" lat="12.776198">
                <ele>40.512817</ele>
                <time>2005-12-17T09:26:32Z</time>
            </trkpt>
            <trkpt lon="100.944378" lat="12.776306">
                <ele>40.512817</ele>
                <time>2005-12-17T09:26:35Z</time>
            </trkpt>
            <trkpt lon="100.944421" lat="12.776456">
                <ele>40.512817</ele>
                <time>2005-12-17T09:26:39Z</time>
            </trkpt>
            <trkpt lon="100.944335" lat="12.776649">
                <ele>40.512817</ele>
                <time>2005-12-17T09:26:44Z</time>
            </trkpt>
            <trkpt lon="100.944078" lat="12.777185">
                <ele>39.551270</ele>
                <time>2005-12-17T09:27:00Z</time>
            </trkpt>
            <trkpt lon="100.944099" lat="12.777207">
                <ele>39.070679</ele>
                <time>2005-12-17T09:27:03Z</time>
            </trkpt>
            <trkpt lon="100.944207" lat="12.777185">
                <ele>38.109375</ele>
                <time>2005-12-17T09:27:07Z</time>
            </trkpt>
            <trkpt lon="100.944786" lat="12.776692">
                <ele>37.148071</ele>
                <time>2005-12-17T09:27:24Z</time>
            </trkpt>
            <trkpt lon="100.945837" lat="12.775855">
                <ele>39.070679</ele>
                <time>2005-12-17T09:27:50Z</time>
            </trkpt>
            <trkpt lon="100.945880" lat="12.775834">
                <ele>39.551270</ele>
                <time>2005-12-17T09:27:51Z</time>
            </trkpt>
            <trkpt lon="100.946009" lat="12.775919">
                <ele>38.590088</ele>
                <time>2005-12-17T09:27:56Z</time>
            </trkpt>
            <trkpt lon="100.946395" lat="12.776992">
                <ele>37.148071</ele>
                <time>2005-12-17T09:28:18Z</time>
            </trkpt>
            <trkpt lon="100.946739" lat="12.777915">
                <ele>36.667480</ele>
                <time>2005-12-17T09:28:36Z</time>
            </trkpt>
            <trkpt lon="100.946825" lat="12.778172">
                <ele>35.706055</ele>
                <time>2005-12-17T09:28:41Z</time>
            </trkpt>
            <trkpt lon="100.946696" lat="12.779138">
                <ele>33.302856</ele>
                <time>2005-12-17T09:28:59Z</time>
            </trkpt>
            <trkpt lon="100.946653" lat="12.779353">
                <ele>32.822266</ele>
                <time>2005-12-17T09:29:03Z</time>
            </trkpt>
            <trkpt lon="100.946825" lat="12.780061">
                <ele>32.341553</ele>
                <time>2005-12-17T09:29:16Z</time>
            </trkpt>
            <trkpt lon="100.946825" lat="12.780962">
                <ele>31.860718</ele>
                <time>2005-12-17T09:29:33Z</time>
            </trkpt>
            <trkpt lon="100.946867" lat="12.781048">
                <ele>31.860718</ele>
                <time>2005-12-17T09:29:35Z</time>
            </trkpt>
            <trkpt lon="100.946996" lat="12.781091">
                <ele>31.380127</ele>
                <time>2005-12-17T09:29:39Z</time>
            </trkpt>
            <trkpt lon="100.947597" lat="12.781305">
                <ele>32.341553</ele>
                <time>2005-12-17T09:29:55Z</time>
            </trkpt>
            <trkpt lon="100.948327" lat="12.781649">
                <ele>32.341553</ele>
                <time>2005-12-17T09:30:13Z</time>
            </trkpt>
            <trkpt lon="100.948734" lat="12.781820">
                <ele>32.822266</ele>
                <time>2005-12-17T09:30:24Z</time>
            </trkpt>
            <trkpt lon="100.948842" lat="12.781734">
                <ele>32.822266</ele>
                <time>2005-12-17T09:30:28Z</time>
            </trkpt>
            <trkpt lon="100.949185" lat="12.780790">
                <ele>31.860718</ele>
                <time>2005-12-17T09:30:50Z</time>
            </trkpt>
            <trkpt lon="100.949528" lat="12.779825">
                <ele>32.341553</ele>
                <time>2005-12-17T09:31:14Z</time>
            </trkpt>
            <trkpt lon="100.949571" lat="12.779074">
                <ele>34.264160</ele>
                <time>2005-12-17T09:31:32Z</time>
            </trkpt>
            <trkpt lon="100.949571" lat="12.778709">
                <ele>34.264160</ele>
                <time>2005-12-17T09:31:41Z</time>
            </trkpt>
            <trkpt lon="100.949657" lat="12.778044">
                <ele>35.706055</ele>
                <time>2005-12-17T09:31:58Z</time>
            </trkpt>
            <trkpt lon="100.949829" lat="12.777271">
                <ele>37.148071</ele>
                <time>2005-12-17T09:32:19Z</time>
            </trkpt>
            <trkpt lon="100.949829" lat="12.776520">
                <ele>39.551270</ele>
                <time>2005-12-17T09:32:41Z</time>
            </trkpt>
            <trkpt lon="100.949829" lat="12.776477">
                <ele>39.551270</ele>
                <time>2005-12-17T09:32:42Z</time>
            </trkpt>
            <trkpt lon="100.950065" lat="12.776349">
                <ele>40.032104</ele>
                <time>2005-12-17T09:32:50Z</time>
            </trkpt>
            <trkpt lon="100.950451" lat="12.776263">
                <ele>42.435425</ele>
                <time>2005-12-17T09:33:05Z</time>
            </trkpt>
            <trkpt lon="100.950472" lat="12.776284">
                <ele>43.396606</ele>
                <time>2005-12-17T09:33:14Z</time>
            </trkpt>
            <trkpt lon="100.950773" lat="12.776392">
                <ele>43.877319</ele>
                <time>2005-12-17T09:33:27Z</time>
            </trkpt>
            <trkpt lon="100.950816" lat="12.776413">
                <ele>48.203369</ele>
                <time>2005-12-17T09:33:39Z</time>
            </trkpt>
            <trkpt lon="100.950966" lat="12.776392">
                <ele>49.164551</ele>
                <time>2005-12-17T09:34:18Z</time>
            </trkpt>
            <trkpt lon="100.951567" lat="12.776434">
                <ele>46.761230</ele>
                <time>2005-12-17T09:34:36Z</time>
            </trkpt>
            <trkpt lon="100.952232" lat="12.776413">
                <ele>43.877319</ele>
                <time>2005-12-17T09:34:55Z</time>
            </trkpt>
            <trkpt lon="100.953004" lat="12.776670">
                <ele>42.435425</ele>
                <time>2005-12-17T09:35:13Z</time>
            </trkpt>
            <trkpt lon="100.953820" lat="12.777100">
                <ele>42.916016</ele>
                <time>2005-12-17T09:35:32Z</time>
            </trkpt>
            <trkpt lon="100.953948" lat="12.777121">
                <ele>41.954712</ele>
                <time>2005-12-17T09:35:34Z</time>
            </trkpt>
            <trkpt lon="100.954700" lat="12.777100">
                <ele>36.667480</ele>
                <time>2005-12-17T09:35:48Z</time>
            </trkpt>
            <trkpt lon="100.955429" lat="12.777057">
                <ele>37.628662</ele>
                <time>2005-12-17T09:36:03Z</time>
            </trkpt>
            <trkpt lon="100.955923" lat="12.777057">
                <ele>39.070679</ele>
                <time>2005-12-17T09:36:15Z</time>
            </trkpt>
            <trkpt lon="100.956051" lat="12.777057">
                <ele>39.551270</ele>
                <time>2005-12-17T09:36:18Z</time>
            </trkpt>
            <trkpt lon="100.956223" lat="12.776992">
                <ele>39.070679</ele>
                <time>2005-12-17T09:36:22Z</time>
            </trkpt>
            <trkpt lon="100.956438" lat="12.776906">
                <ele>39.070679</ele>
                <time>2005-12-17T09:36:27Z</time>
            </trkpt>
            <trkpt lon="100.956523" lat="12.776928">
                <ele>39.551270</ele>
                <time>2005-12-17T09:36:29Z</time>
            </trkpt>
            <trkpt lon="100.956931" lat="12.777357">
                <ele>41.954712</ele>
                <time>2005-12-17T09:36:43Z</time>
            </trkpt>
            <trkpt lon="100.957103" lat="12.777529">
                <ele>42.435425</ele>
                <time>2005-12-17T09:36:49Z</time>
            </trkpt>
            <trkpt lon="100.957897" lat="12.778301">
                <ele>43.877319</ele>
                <time>2005-12-17T09:37:17Z</time>
            </trkpt>
            <trkpt lon="100.958111" lat="12.778430">
                <ele>45.319214</ele>
                <time>2005-12-17T09:37:27Z</time>
            </trkpt>
            <trkpt lon="100.958369" lat="12.778237">
                <ele>45.319214</ele>
                <time>2005-12-17T09:37:40Z</time>
            </trkpt>
            <trkpt lon="100.958948" lat="12.777786">
                <ele>45.799927</ele>
                <time>2005-12-17T09:38:00Z</time>
            </trkpt>
            <trkpt lon="100.959613" lat="12.777228">
                <ele>48.683960</ele>
                <time>2005-12-17T09:38:19Z</time>
            </trkpt>
            <trkpt lon="100.959613" lat="12.776906">
                <ele>48.683960</ele>
                <time>2005-12-17T09:38:26Z</time>
            </trkpt>
            <trkpt lon="100.958970" lat="12.775877">
                <ele>46.761230</ele>
                <time>2005-12-17T09:38:46Z</time>
            </trkpt>
            <trkpt lon="100.958326" lat="12.774868">
                <ele>47.722534</ele>
                <time>2005-12-17T09:39:05Z</time>
            </trkpt>
            <trkpt lon="100.957575" lat="12.773774">
                <ele>51.087158</ele>
                <time>2005-12-17T09:39:25Z</time>
            </trkpt>
            <trkpt lon="100.956995" lat="12.773173">
                <ele>50.125977</ele>
                <time>2005-12-17T09:39:41Z</time>
            </trkpt>
            <trkpt lon="100.956566" lat="12.772787">
                <ele>51.567871</ele>
                <time>2005-12-17T09:40:00Z</time>
            </trkpt>
            <trkpt lon="100.956202" lat="12.772293">
                <ele>55.413086</ele>
                <time>2005-12-17T09:40:25Z</time>
            </trkpt>
            <trkpt lon="100.955987" lat="12.771950">
                <ele>57.816528</ele>
                <time>2005-12-17T09:40:44Z</time>
            </trkpt>
            <trkpt lon="100.955579" lat="12.771306">
                <ele>59.739136</ele>
                <time>2005-12-17T09:41:18Z</time>
            </trkpt>
            <trkpt lon="100.955107" lat="12.770834">
                <ele>60.700317</ele>
                <time>2005-12-17T09:41:44Z</time>
            </trkpt>
            <trkpt lon="100.954700" lat="12.770340">
                <ele>66.948975</ele>
                <time>2005-12-17T09:42:11Z</time>
            </trkpt>
            <trkpt lon="100.954399" lat="12.769847">
                <ele>73.197632</ele>
                <time>2005-12-17T09:42:30Z</time>
            </trkpt>
            <trkpt lon="100.954056" lat="12.769332">
                <ele>76.081421</ele>
                <time>2005-12-17T09:42:46Z</time>
            </trkpt>
            <trkpt lon="100.954056" lat="12.769160">
                <ele>75.600830</ele>
                <time>2005-12-17T09:42:50Z</time>
            </trkpt>
            <trkpt lon="100.954764" lat="12.768688">
                <ele>74.639526</ele>
                <time>2005-12-17T09:43:11Z</time>
            </trkpt>
            <trkpt lon="100.955579" lat="12.768323">
                <ele>73.197632</ele>
                <time>2005-12-17T09:43:28Z</time>
            </trkpt>
            <trkpt lon="100.956867" lat="12.767873">
                <ele>73.197632</ele>
                <time>2005-12-17T09:43:48Z</time>
            </trkpt>
            <trkpt lon="100.957983" lat="12.767036">
                <ele>70.794189</ele>
                <time>2005-12-17T09:44:08Z</time>
            </trkpt>
            <trkpt lon="100.958090" lat="12.766757">
                <ele>68.871582</ele>
                <time>2005-12-17T09:44:13Z</time>
            </trkpt>
            <trkpt lon="100.958197" lat="12.766392">
                <ele>67.910278</ele>
                <time>2005-12-17T09:44:19Z</time>
            </trkpt>
            <trkpt lon="100.958498" lat="12.765234">
                <ele>61.661743</ele>
                <time>2005-12-17T09:44:38Z</time>
            </trkpt>
            <trkpt lon="100.958519" lat="12.765126">
                <ele>61.181030</ele>
                <time>2005-12-17T09:44:40Z</time>
            </trkpt>
            <trkpt lon="100.958519" lat="12.765062">
                <ele>60.219727</ele>
                <time>2005-12-17T09:44:50Z</time>
            </trkpt>
            <trkpt lon="100.958540" lat="12.765062">
                <ele>63.584351</ele>
                <time>2005-12-17T09:46:08Z</time>
            </trkpt>
        </trkseg>
    </trk>
</gpx>